<?xml version="1.0" encoding="UTF-8" standalone="no" ?>
<gpx xmlns="http://www.topografix.com/GPX/1/1" xmlns:xsi="http://www.w3.org/2001/XMLSchema-instance" xsi:schemaLocation="http://www.topografix.com/GPX/1/1 http://www.topografix.com/GPX/1/1/gpx.xsd" version="1.1" creator="VisuGPX - https://www.visugpx.com">
  <metadata>
    <name>parcours vtt 57 et 60 Mantry (jura)</name>
    <desc><![CDATA[joli petit tour de 30 km entre vignes et étangs .]]></desc>
  </metadata>
  <trk>
    <name><![CDATA[2015-08-28 16:51]]></name>
    <desc><![CDATA[<h1>OruxMaps</h1><br /><hr align="center" width="480" style="height: 2px; width: 517px"/><h2>Nom: 2015-08-28 16:51</h2><br /><p>Temps de départ: 08/28/2015 16:50</p><p>Temps d'arrivée: 08/28/2015 18:35</p><p>Distance: 28,8km (01:44)</p><p>Temps déplacement: 01:32</p><p>Vitesse moyenne: 16,6km/h</p><p>Vitesse moyenne: 18,7km/h</p><p>Vitess Max.: 48,5km/h</p><p>Altitude minimale: 215m</p><p>Altitude maximale: 364m</p><p>Vitesse d'élévation: 759,9m/h</p><p>Vitesse de descente: -1131,7m/h</p><p>Gain Altitude: 655m</p><p>Perte Altitude: -663m</p><p>Temps d'élévation: 00:51</p><p>Temps de descente: 00:35</p><hr align="center" width="480" style="height: 2px; width: 517px"/>]]></desc>
    <trkseg>
      <trkpt lat="46.79658" lon="5.55939">
        <ele>305.92</ele>
        <time>2015-08-28T14:50:57Z</time>
      </trkpt>
      <trkpt lat="46.79657" lon="5.55904">
        <ele>304.32</ele>
        <time>2015-08-28T14:53:05Z</time>
      </trkpt>
      <trkpt lat="46.7966" lon="5.55874">
        <ele>304.26</ele>
        <time>2015-08-28T14:53:08Z</time>
      </trkpt>
      <trkpt lat="46.79662" lon="5.55841">
        <ele>305.01</ele>
        <time>2015-08-28T14:53:11Z</time>
      </trkpt>
      <trkpt lat="46.79653" lon="5.55808">
        <ele>304.48</ele>
        <time>2015-08-28T14:53:14Z</time>
      </trkpt>
      <trkpt lat="46.79632" lon="5.55787">
        <ele>303.53</ele>
        <time>2015-08-28T14:53:17Z</time>
      </trkpt>
      <trkpt lat="46.79611" lon="5.5577">
        <ele>301.92</ele>
        <time>2015-08-28T14:53:20Z</time>
      </trkpt>
      <trkpt lat="46.79594" lon="5.55753">
        <ele>301.28</ele>
        <time>2015-08-28T14:53:25Z</time>
      </trkpt>
      <trkpt lat="46.79577" lon="5.55737">
        <ele>300.01</ele>
        <time>2015-08-28T14:53:29Z</time>
      </trkpt>
      <trkpt lat="46.79559" lon="5.55719">
        <ele>298.43</ele>
        <time>2015-08-28T14:53:33Z</time>
      </trkpt>
      <trkpt lat="46.7954" lon="5.55701">
        <ele>296.58</ele>
        <time>2015-08-28T14:53:37Z</time>
      </trkpt>
      <trkpt lat="46.79524" lon="5.55686">
        <ele>294.92</ele>
        <time>2015-08-28T14:53:40Z</time>
      </trkpt>
      <trkpt lat="46.79507" lon="5.5567">
        <ele>293.05</ele>
        <time>2015-08-28T14:53:44Z</time>
      </trkpt>
      <trkpt lat="46.79491" lon="5.55655">
        <ele>291.56</ele>
        <time>2015-08-28T14:53:48Z</time>
      </trkpt>
      <trkpt lat="46.79471" lon="5.55636">
        <ele>290.4</ele>
        <time>2015-08-28T14:53:52Z</time>
      </trkpt>
      <trkpt lat="46.79454" lon="5.55615">
        <ele>288.15</ele>
        <time>2015-08-28T14:53:55Z</time>
      </trkpt>
      <trkpt lat="46.79433" lon="5.55592">
        <ele>286.12</ele>
        <time>2015-08-28T14:53:58Z</time>
      </trkpt>
      <trkpt lat="46.79418" lon="5.55579">
        <ele>284.22</ele>
        <time>2015-08-28T14:54:00Z</time>
      </trkpt>
      <trkpt lat="46.794" lon="5.55568">
        <ele>283</ele>
        <time>2015-08-28T14:54:02Z</time>
      </trkpt>
      <trkpt lat="46.79383" lon="5.55558">
        <ele>281.94</ele>
        <time>2015-08-28T14:54:04Z</time>
      </trkpt>
      <trkpt lat="46.79365" lon="5.55548">
        <ele>281.43</ele>
        <time>2015-08-28T14:54:06Z</time>
      </trkpt>
      <trkpt lat="46.79349" lon="5.55536">
        <ele>280.8</ele>
        <time>2015-08-28T14:54:08Z</time>
      </trkpt>
      <trkpt lat="46.79325" lon="5.55519">
        <ele>279.57</ele>
        <time>2015-08-28T14:54:11Z</time>
      </trkpt>
      <trkpt lat="46.79309" lon="5.55505">
        <ele>278.84</ele>
        <time>2015-08-28T14:54:13Z</time>
      </trkpt>
      <trkpt lat="46.79295" lon="5.55488">
        <ele>277.9</ele>
        <time>2015-08-28T14:54:15Z</time>
      </trkpt>
      <trkpt lat="46.79281" lon="5.55469">
        <ele>276.17</ele>
        <time>2015-08-28T14:54:17Z</time>
      </trkpt>
      <trkpt lat="46.79273" lon="5.55444">
        <ele>274.98</ele>
        <time>2015-08-28T14:54:19Z</time>
      </trkpt>
      <trkpt lat="46.79268" lon="5.55415">
        <ele>273.19</ele>
        <time>2015-08-28T14:54:21Z</time>
      </trkpt>
      <trkpt lat="46.79267" lon="5.55385">
        <ele>270.99</ele>
        <time>2015-08-28T14:54:23Z</time>
      </trkpt>
      <trkpt lat="46.79274" lon="5.55358">
        <ele>269.19</ele>
        <time>2015-08-28T14:54:25Z</time>
      </trkpt>
      <trkpt lat="46.79276" lon="5.55331">
        <ele>267.99</ele>
        <time>2015-08-28T14:54:27Z</time>
      </trkpt>
      <trkpt lat="46.79266" lon="5.55302">
        <ele>265.72</ele>
        <time>2015-08-28T14:54:30Z</time>
      </trkpt>
      <trkpt lat="46.79245" lon="5.55281">
        <ele>264.44</ele>
        <time>2015-08-28T14:54:33Z</time>
      </trkpt>
      <trkpt lat="46.7923" lon="5.55267">
        <ele>263.55</ele>
        <time>2015-08-28T14:54:35Z</time>
      </trkpt>
      <trkpt lat="46.79214" lon="5.55251">
        <ele>262.58</ele>
        <time>2015-08-28T14:54:37Z</time>
      </trkpt>
      <trkpt lat="46.79198" lon="5.55237">
        <ele>261.84</ele>
        <time>2015-08-28T14:54:39Z</time>
      </trkpt>
      <trkpt lat="46.79182" lon="5.55222">
        <ele>260.9</ele>
        <time>2015-08-28T14:54:41Z</time>
      </trkpt>
      <trkpt lat="46.79165" lon="5.55207">
        <ele>259.92</ele>
        <time>2015-08-28T14:54:43Z</time>
      </trkpt>
      <trkpt lat="46.79146" lon="5.55193">
        <ele>258.67</ele>
        <time>2015-08-28T14:54:45Z</time>
      </trkpt>
      <trkpt lat="46.79126" lon="5.5518">
        <ele>257.11</ele>
        <time>2015-08-28T14:54:47Z</time>
      </trkpt>
      <trkpt lat="46.79106" lon="5.55167">
        <ele>255.97</ele>
        <time>2015-08-28T14:54:49Z</time>
      </trkpt>
      <trkpt lat="46.79085" lon="5.55154">
        <ele>254.19</ele>
        <time>2015-08-28T14:54:51Z</time>
      </trkpt>
      <trkpt lat="46.79063" lon="5.55141">
        <ele>252.74</ele>
        <time>2015-08-28T14:54:53Z</time>
      </trkpt>
      <trkpt lat="46.7904" lon="5.55127">
        <ele>250.38</ele>
        <time>2015-08-28T14:54:55Z</time>
      </trkpt>
      <trkpt lat="46.79016" lon="5.55112">
        <ele>248.29</ele>
        <time>2015-08-28T14:54:57Z</time>
      </trkpt>
      <trkpt lat="46.78993" lon="5.55096">
        <ele>246.26</ele>
        <time>2015-08-28T14:54:59Z</time>
      </trkpt>
      <trkpt lat="46.78969" lon="5.55081">
        <ele>244.26</ele>
        <time>2015-08-28T14:55:01Z</time>
      </trkpt>
      <trkpt lat="46.78946" lon="5.55067">
        <ele>243.51</ele>
        <time>2015-08-28T14:55:03Z</time>
      </trkpt>
      <trkpt lat="46.78925" lon="5.55054">
        <ele>243.32</ele>
        <time>2015-08-28T14:55:05Z</time>
      </trkpt>
      <trkpt lat="46.78906" lon="5.5504">
        <ele>244.02</ele>
        <time>2015-08-28T14:55:07Z</time>
      </trkpt>
      <trkpt lat="46.78892" lon="5.55022">
        <ele>244.95</ele>
        <time>2015-08-28T14:55:09Z</time>
      </trkpt>
      <trkpt lat="46.78881" lon="5.54989">
        <ele>245.97</ele>
        <time>2015-08-28T14:55:12Z</time>
      </trkpt>
      <trkpt lat="46.78875" lon="5.54955">
        <ele>246.72</ele>
        <time>2015-08-28T14:55:15Z</time>
      </trkpt>
      <trkpt lat="46.7887" lon="5.54923">
        <ele>248.06</ele>
        <time>2015-08-28T14:55:18Z</time>
      </trkpt>
      <trkpt lat="46.78871" lon="5.54892">
        <ele>248.73</ele>
        <time>2015-08-28T14:55:21Z</time>
      </trkpt>
      <trkpt lat="46.78873" lon="5.54864">
        <ele>249.69</ele>
        <time>2015-08-28T14:55:24Z</time>
      </trkpt>
      <trkpt lat="46.78873" lon="5.54837">
        <ele>250.94</ele>
        <time>2015-08-28T14:55:27Z</time>
      </trkpt>
      <trkpt lat="46.78867" lon="5.54812">
        <ele>252.09</ele>
        <time>2015-08-28T14:55:30Z</time>
      </trkpt>
      <trkpt lat="46.78848" lon="5.54792">
        <ele>253.93</ele>
        <time>2015-08-28T14:55:34Z</time>
      </trkpt>
      <trkpt lat="46.78827" lon="5.54782">
        <ele>255.11</ele>
        <time>2015-08-28T14:55:38Z</time>
      </trkpt>
      <trkpt lat="46.78805" lon="5.54773">
        <ele>256.69</ele>
        <time>2015-08-28T14:55:42Z</time>
      </trkpt>
      <trkpt lat="46.78789" lon="5.54756">
        <ele>258.6</ele>
        <time>2015-08-28T14:55:46Z</time>
      </trkpt>
      <trkpt lat="46.78778" lon="5.54734">
        <ele>259.72</ele>
        <time>2015-08-28T14:55:50Z</time>
      </trkpt>
      <trkpt lat="46.7877" lon="5.54706">
        <ele>261.43</ele>
        <time>2015-08-28T14:55:55Z</time>
      </trkpt>
      <trkpt lat="46.78759" lon="5.54683">
        <ele>262.23</ele>
        <time>2015-08-28T14:56:00Z</time>
      </trkpt>
      <trkpt lat="46.78744" lon="5.54704">
        <ele>264.12</ele>
        <time>2015-08-28T14:56:06Z</time>
      </trkpt>
      <trkpt lat="46.78736" lon="5.54729">
        <ele>266.91</ele>
        <time>2015-08-28T14:56:11Z</time>
      </trkpt>
      <trkpt lat="46.78727" lon="5.54755">
        <ele>268.96</ele>
        <time>2015-08-28T14:56:16Z</time>
      </trkpt>
      <trkpt lat="46.78718" lon="5.54781">
        <ele>271.1</ele>
        <time>2015-08-28T14:56:23Z</time>
      </trkpt>
      <trkpt lat="46.78711" lon="5.54807">
        <ele>272.69</ele>
        <time>2015-08-28T14:56:29Z</time>
      </trkpt>
      <trkpt lat="46.78704" lon="5.54833">
        <ele>273.06</ele>
        <time>2015-08-28T14:56:35Z</time>
      </trkpt>
      <trkpt lat="46.78698" lon="5.54857">
        <ele>274.69</ele>
        <time>2015-08-28T14:56:41Z</time>
      </trkpt>
      <trkpt lat="46.7869" lon="5.54884">
        <ele>276.97</ele>
        <time>2015-08-28T14:56:47Z</time>
      </trkpt>
      <trkpt lat="46.78679" lon="5.54905">
        <ele>278.12</ele>
        <time>2015-08-28T14:56:52Z</time>
      </trkpt>
      <trkpt lat="46.78665" lon="5.54927">
        <ele>279.47</ele>
        <time>2015-08-28T14:56:57Z</time>
      </trkpt>
      <trkpt lat="46.7865" lon="5.54952">
        <ele>279.51</ele>
        <time>2015-08-28T14:57:02Z</time>
      </trkpt>
      <trkpt lat="46.78635" lon="5.54976">
        <ele>279.27</ele>
        <time>2015-08-28T14:57:07Z</time>
      </trkpt>
      <trkpt lat="46.78618" lon="5.54998">
        <ele>277.94</ele>
        <time>2015-08-28T14:57:12Z</time>
      </trkpt>
      <trkpt lat="46.78599" lon="5.54997">
        <ele>280.36</ele>
        <time>2015-08-28T14:57:16Z</time>
      </trkpt>
      <trkpt lat="46.7858" lon="5.54981">
        <ele>282.93</ele>
        <time>2015-08-28T14:57:22Z</time>
      </trkpt>
      <trkpt lat="46.78561" lon="5.54967">
        <ele>284.94</ele>
        <time>2015-08-28T14:57:28Z</time>
      </trkpt>
      <trkpt lat="46.7854" lon="5.54963">
        <ele>285.25</ele>
        <time>2015-08-28T14:57:33Z</time>
      </trkpt>
      <trkpt lat="46.78521" lon="5.54963">
        <ele>286.69</ele>
        <time>2015-08-28T14:57:38Z</time>
      </trkpt>
      <trkpt lat="46.78501" lon="5.54964">
        <ele>287.74</ele>
        <time>2015-08-28T14:57:43Z</time>
      </trkpt>
      <trkpt lat="46.78482" lon="5.54967">
        <ele>288.24</ele>
        <time>2015-08-28T14:57:48Z</time>
      </trkpt>
      <trkpt lat="46.78464" lon="5.54971">
        <ele>290.1</ele>
        <time>2015-08-28T14:57:53Z</time>
      </trkpt>
      <trkpt lat="46.78445" lon="5.54968">
        <ele>292.6</ele>
        <time>2015-08-28T14:57:58Z</time>
      </trkpt>
      <trkpt lat="46.78425" lon="5.54961">
        <ele>293.89</ele>
        <time>2015-08-28T14:58:03Z</time>
      </trkpt>
      <trkpt lat="46.78407" lon="5.54954">
        <ele>294.25</ele>
        <time>2015-08-28T14:58:08Z</time>
      </trkpt>
      <trkpt lat="46.78387" lon="5.54954">
        <ele>297.16</ele>
        <time>2015-08-28T14:58:17Z</time>
      </trkpt>
      <trkpt lat="46.78372" lon="5.5497">
        <ele>298.25</ele>
        <time>2015-08-28T14:58:26Z</time>
      </trkpt>
      <trkpt lat="46.78357" lon="5.54991">
        <ele>300.74</ele>
        <time>2015-08-28T14:58:35Z</time>
      </trkpt>
      <trkpt lat="46.78343" lon="5.55009">
        <ele>301.19</ele>
        <time>2015-08-28T14:58:42Z</time>
      </trkpt>
      <trkpt lat="46.78322" lon="5.55014">
        <ele>302.19</ele>
        <time>2015-08-28T14:58:48Z</time>
      </trkpt>
      <trkpt lat="46.78303" lon="5.55011">
        <ele>302.25</ele>
        <time>2015-08-28T14:58:52Z</time>
      </trkpt>
      <trkpt lat="46.78279" lon="5.55003">
        <ele>299.94</ele>
        <time>2015-08-28T14:58:56Z</time>
      </trkpt>
      <trkpt lat="46.7826" lon="5.54989">
        <ele>298.59</ele>
        <time>2015-08-28T14:58:59Z</time>
      </trkpt>
      <trkpt lat="46.78245" lon="5.54974">
        <ele>296.67</ele>
        <time>2015-08-28T14:59:02Z</time>
      </trkpt>
      <trkpt lat="46.78227" lon="5.54987">
        <ele>293.97</ele>
        <time>2015-08-28T14:59:06Z</time>
      </trkpt>
      <trkpt lat="46.78221" lon="5.55016">
        <ele>292.1</ele>
        <time>2015-08-28T14:59:09Z</time>
      </trkpt>
      <trkpt lat="46.78218" lon="5.55054">
        <ele>289.24</ele>
        <time>2015-08-28T14:59:12Z</time>
      </trkpt>
      <trkpt lat="46.78217" lon="5.55083">
        <ele>288.5</ele>
        <time>2015-08-28T14:59:14Z</time>
      </trkpt>
      <trkpt lat="46.78214" lon="5.55109">
        <ele>287.57</ele>
        <time>2015-08-28T14:59:16Z</time>
      </trkpt>
      <trkpt lat="46.78206" lon="5.55145">
        <ele>287.3</ele>
        <time>2015-08-28T14:59:19Z</time>
      </trkpt>
      <trkpt lat="46.78198" lon="5.55181">
        <ele>286.51</ele>
        <time>2015-08-28T14:59:22Z</time>
      </trkpt>
      <trkpt lat="46.78193" lon="5.55217">
        <ele>285.54</ele>
        <time>2015-08-28T14:59:25Z</time>
      </trkpt>
      <trkpt lat="46.78202" lon="5.55253">
        <ele>284.04</ele>
        <time>2015-08-28T14:59:28Z</time>
      </trkpt>
      <trkpt lat="46.78211" lon="5.55277">
        <ele>283.45</ele>
        <time>2015-08-28T14:59:30Z</time>
      </trkpt>
      <trkpt lat="46.78228" lon="5.55303">
        <ele>284.28</ele>
        <time>2015-08-28T14:59:33Z</time>
      </trkpt>
      <trkpt lat="46.78248" lon="5.55322">
        <ele>284.26</ele>
        <time>2015-08-28T14:59:36Z</time>
      </trkpt>
      <trkpt lat="46.78264" lon="5.55339">
        <ele>284.26</ele>
        <time>2015-08-28T14:59:39Z</time>
      </trkpt>
      <trkpt lat="46.78272" lon="5.55365">
        <ele>284.26</ele>
        <time>2015-08-28T14:59:42Z</time>
      </trkpt>
      <trkpt lat="46.78266" lon="5.55395">
        <ele>283.51</ele>
        <time>2015-08-28T14:59:45Z</time>
      </trkpt>
      <trkpt lat="46.78258" lon="5.55425">
        <ele>283.29</ele>
        <time>2015-08-28T14:59:48Z</time>
      </trkpt>
      <trkpt lat="46.78251" lon="5.55453">
        <ele>284.14</ele>
        <time>2015-08-28T14:59:51Z</time>
      </trkpt>
      <trkpt lat="46.78245" lon="5.55481">
        <ele>284.99</ele>
        <time>2015-08-28T14:59:54Z</time>
      </trkpt>
      <trkpt lat="46.7824" lon="5.55515">
        <ele>284.72</ele>
        <time>2015-08-28T14:59:57Z</time>
      </trkpt>
      <trkpt lat="46.78244" lon="5.55548">
        <ele>283.57</ele>
        <time>2015-08-28T15:00:00Z</time>
      </trkpt>
      <trkpt lat="46.7826" lon="5.55571">
        <ele>282.42</ele>
        <time>2015-08-28T15:00:03Z</time>
      </trkpt>
      <trkpt lat="46.7827" lon="5.55595">
        <ele>282.28</ele>
        <time>2015-08-28T15:00:06Z</time>
      </trkpt>
      <trkpt lat="46.78261" lon="5.55627">
        <ele>280.13</ele>
        <time>2015-08-28T15:00:09Z</time>
      </trkpt>
      <trkpt lat="46.78252" lon="5.5566">
        <ele>276.99</ele>
        <time>2015-08-28T15:00:12Z</time>
      </trkpt>
      <trkpt lat="46.78248" lon="5.55695">
        <ele>275.85</ele>
        <time>2015-08-28T15:00:15Z</time>
      </trkpt>
      <trkpt lat="46.78247" lon="5.55728">
        <ele>275.33</ele>
        <time>2015-08-28T15:00:18Z</time>
      </trkpt>
      <trkpt lat="46.78248" lon="5.55762">
        <ele>275.27</ele>
        <time>2015-08-28T15:00:21Z</time>
      </trkpt>
      <trkpt lat="46.78248" lon="5.55796">
        <ele>275.26</ele>
        <time>2015-08-28T15:00:24Z</time>
      </trkpt>
      <trkpt lat="46.7825" lon="5.5583">
        <ele>275.26</ele>
        <time>2015-08-28T15:00:27Z</time>
      </trkpt>
      <trkpt lat="46.78254" lon="5.55863">
        <ele>275.26</ele>
        <time>2015-08-28T15:00:30Z</time>
      </trkpt>
      <trkpt lat="46.78259" lon="5.55896">
        <ele>275.26</ele>
        <time>2015-08-28T15:00:33Z</time>
      </trkpt>
      <trkpt lat="46.7826" lon="5.55928">
        <ele>275.26</ele>
        <time>2015-08-28T15:00:36Z</time>
      </trkpt>
      <trkpt lat="46.78261" lon="5.55963">
        <ele>275.26</ele>
        <time>2015-08-28T15:00:39Z</time>
      </trkpt>
      <trkpt lat="46.78263" lon="5.55995">
        <ele>275.76</ele>
        <time>2015-08-28T15:00:42Z</time>
      </trkpt>
      <trkpt lat="46.78261" lon="5.56026">
        <ele>276.19</ele>
        <time>2015-08-28T15:00:45Z</time>
      </trkpt>
      <trkpt lat="46.78257" lon="5.56059">
        <ele>277.69</ele>
        <time>2015-08-28T15:00:49Z</time>
      </trkpt>
      <trkpt lat="46.78273" lon="5.56079">
        <ele>279.91</ele>
        <time>2015-08-28T15:00:53Z</time>
      </trkpt>
      <trkpt lat="46.78297" lon="5.56082">
        <ele>280.24</ele>
        <time>2015-08-28T15:00:57Z</time>
      </trkpt>
      <trkpt lat="46.7832" lon="5.56087">
        <ele>281.94</ele>
        <time>2015-08-28T15:01:01Z</time>
      </trkpt>
      <trkpt lat="46.78342" lon="5.56088">
        <ele>281.49</ele>
        <time>2015-08-28T15:01:05Z</time>
      </trkpt>
      <trkpt lat="46.7836" lon="5.56086">
        <ele>281.29</ele>
        <time>2015-08-28T15:01:08Z</time>
      </trkpt>
      <trkpt lat="46.78379" lon="5.56083">
        <ele>280.39</ele>
        <time>2015-08-28T15:01:11Z</time>
      </trkpt>
      <trkpt lat="46.78397" lon="5.56083">
        <ele>281.15</ele>
        <time>2015-08-28T15:01:14Z</time>
      </trkpt>
      <trkpt lat="46.78416" lon="5.56084">
        <ele>280.62</ele>
        <time>2015-08-28T15:01:17Z</time>
      </trkpt>
      <trkpt lat="46.78435" lon="5.56088">
        <ele>280.3</ele>
        <time>2015-08-28T15:01:20Z</time>
      </trkpt>
      <trkpt lat="46.78451" lon="5.56101">
        <ele>279.39</ele>
        <time>2015-08-28T15:01:23Z</time>
      </trkpt>
      <trkpt lat="46.78451" lon="5.56136">
        <ele>280.02</ele>
        <time>2015-08-28T15:01:27Z</time>
      </trkpt>
      <trkpt lat="46.7844" lon="5.56159">
        <ele>280.23</ele>
        <time>2015-08-28T15:01:30Z</time>
      </trkpt>
      <trkpt lat="46.78422" lon="5.56175">
        <ele>281.13</ele>
        <time>2015-08-28T15:01:34Z</time>
      </trkpt>
      <trkpt lat="46.78408" lon="5.56194">
        <ele>283.57</ele>
        <time>2015-08-28T15:01:39Z</time>
      </trkpt>
      <trkpt lat="46.78425" lon="5.5621">
        <ele>285.17</ele>
        <time>2015-08-28T15:01:44Z</time>
      </trkpt>
      <trkpt lat="46.78445" lon="5.56217">
        <ele>286.19</ele>
        <time>2015-08-28T15:01:49Z</time>
      </trkpt>
      <trkpt lat="46.78454" lon="5.56243">
        <ele>287.63</ele>
        <time>2015-08-28T15:02:03Z</time>
      </trkpt>
      <trkpt lat="46.7846" lon="5.56272">
        <ele>289.72</ele>
        <time>2015-08-28T15:02:10Z</time>
      </trkpt>
      <trkpt lat="46.78465" lon="5.56298">
        <ele>291</ele>
        <time>2015-08-28T15:02:16Z</time>
      </trkpt>
      <trkpt lat="46.78477" lon="5.56317">
        <ele>292.16</ele>
        <time>2015-08-28T15:02:22Z</time>
      </trkpt>
      <trkpt lat="46.78495" lon="5.56328">
        <ele>293.22</ele>
        <time>2015-08-28T15:02:28Z</time>
      </trkpt>
      <trkpt lat="46.7851" lon="5.56346">
        <ele>294.88</ele>
        <time>2015-08-28T15:02:34Z</time>
      </trkpt>
      <trkpt lat="46.78512" lon="5.56374">
        <ele>296.13</ele>
        <time>2015-08-28T15:02:40Z</time>
      </trkpt>
      <trkpt lat="46.78508" lon="5.56402">
        <ele>298.68</ele>
        <time>2015-08-28T15:02:46Z</time>
      </trkpt>
      <trkpt lat="46.78504" lon="5.56431">
        <ele>300.62</ele>
        <time>2015-08-28T15:02:52Z</time>
      </trkpt>
      <trkpt lat="46.78499" lon="5.56458">
        <ele>302.62</ele>
        <time>2015-08-28T15:02:58Z</time>
      </trkpt>
      <trkpt lat="46.78494" lon="5.56487">
        <ele>304.98</ele>
        <time>2015-08-28T15:03:04Z</time>
      </trkpt>
      <trkpt lat="46.78493" lon="5.56516">
        <ele>307.07</ele>
        <time>2015-08-28T15:03:10Z</time>
      </trkpt>
      <trkpt lat="46.7849" lon="5.56546">
        <ele>310.55</ele>
        <time>2015-08-28T15:03:16Z</time>
      </trkpt>
      <trkpt lat="46.78484" lon="5.56572">
        <ele>313.59</ele>
        <time>2015-08-28T15:03:22Z</time>
      </trkpt>
      <trkpt lat="46.78477" lon="5.56598">
        <ele>316.11</ele>
        <time>2015-08-28T15:03:30Z</time>
      </trkpt>
      <trkpt lat="46.78465" lon="5.5662">
        <ele>319.19</ele>
        <time>2015-08-28T15:03:41Z</time>
      </trkpt>
      <trkpt lat="46.78447" lon="5.5663">
        <ele>321.72</ele>
        <time>2015-08-28T15:03:51Z</time>
      </trkpt>
      <trkpt lat="46.78428" lon="5.56641">
        <ele>324.12</ele>
        <time>2015-08-28T15:04:00Z</time>
      </trkpt>
      <trkpt lat="46.78411" lon="5.56652">
        <ele>325.01</ele>
        <time>2015-08-28T15:04:10Z</time>
      </trkpt>
      <trkpt lat="46.78398" lon="5.56671">
        <ele>330.11</ele>
        <time>2015-08-28T15:04:21Z</time>
      </trkpt>
      <trkpt lat="46.78381" lon="5.56687">
        <ele>333.01</ele>
        <time>2015-08-28T15:04:35Z</time>
      </trkpt>
      <trkpt lat="46.78364" lon="5.567">
        <ele>335.88</ele>
        <time>2015-08-28T15:04:44Z</time>
      </trkpt>
      <trkpt lat="46.78356" lon="5.56725">
        <ele>338.97</ele>
        <time>2015-08-28T15:04:54Z</time>
      </trkpt>
      <trkpt lat="46.78349" lon="5.56752">
        <ele>342.22</ele>
        <time>2015-08-28T15:05:06Z</time>
      </trkpt>
      <trkpt lat="46.78338" lon="5.56775">
        <ele>343.31</ele>
        <time>2015-08-28T15:05:17Z</time>
      </trkpt>
      <trkpt lat="46.78327" lon="5.56798">
        <ele>345.29</ele>
        <time>2015-08-28T15:05:28Z</time>
      </trkpt>
      <trkpt lat="46.78319" lon="5.56823">
        <ele>347.72</ele>
        <time>2015-08-28T15:05:39Z</time>
      </trkpt>
      <trkpt lat="46.78314" lon="5.56851">
        <ele>351.12</ele>
        <time>2015-08-28T15:05:50Z</time>
      </trkpt>
      <trkpt lat="46.78314" lon="5.5688">
        <ele>351.37</ele>
        <time>2015-08-28T15:05:59Z</time>
      </trkpt>
      <trkpt lat="46.78321" lon="5.56907">
        <ele>352.23</ele>
        <time>2015-08-28T15:06:06Z</time>
      </trkpt>
      <trkpt lat="46.78328" lon="5.56935">
        <ele>351.38</ele>
        <time>2015-08-28T15:06:12Z</time>
      </trkpt>
      <trkpt lat="46.78335" lon="5.56963">
        <ele>350.39</ele>
        <time>2015-08-28T15:06:17Z</time>
      </trkpt>
      <trkpt lat="46.78345" lon="5.56992">
        <ele>349.77</ele>
        <time>2015-08-28T15:06:21Z</time>
      </trkpt>
      <trkpt lat="46.78355" lon="5.57022">
        <ele>347.82</ele>
        <time>2015-08-28T15:06:24Z</time>
      </trkpt>
      <trkpt lat="46.78362" lon="5.57055">
        <ele>347.33</ele>
        <time>2015-08-28T15:06:27Z</time>
      </trkpt>
      <trkpt lat="46.78367" lon="5.57087">
        <ele>345.89</ele>
        <time>2015-08-28T15:06:30Z</time>
      </trkpt>
      <trkpt lat="46.7837" lon="5.57121">
        <ele>344.59</ele>
        <time>2015-08-28T15:06:33Z</time>
      </trkpt>
      <trkpt lat="46.78373" lon="5.57153">
        <ele>344.3</ele>
        <time>2015-08-28T15:06:36Z</time>
      </trkpt>
      <trkpt lat="46.78372" lon="5.57187">
        <ele>343.39</ele>
        <time>2015-08-28T15:06:39Z</time>
      </trkpt>
      <trkpt lat="46.78374" lon="5.57224">
        <ele>342.4</ele>
        <time>2015-08-28T15:06:42Z</time>
      </trkpt>
      <trkpt lat="46.78379" lon="5.57258">
        <ele>342.27</ele>
        <time>2015-08-28T15:06:45Z</time>
      </trkpt>
      <trkpt lat="46.78384" lon="5.5729">
        <ele>343.13</ele>
        <time>2015-08-28T15:06:48Z</time>
      </trkpt>
      <trkpt lat="46.78384" lon="5.57317">
        <ele>343.74</ele>
        <time>2015-08-28T15:06:51Z</time>
      </trkpt>
      <trkpt lat="46.78381" lon="5.57351">
        <ele>343.72</ele>
        <time>2015-08-28T15:06:55Z</time>
      </trkpt>
      <trkpt lat="46.78372" lon="5.57382">
        <ele>341.16</ele>
        <time>2015-08-28T15:06:59Z</time>
      </trkpt>
      <trkpt lat="46.78364" lon="5.57409">
        <ele>338.37</ele>
        <time>2015-08-28T15:07:02Z</time>
      </trkpt>
      <trkpt lat="46.78366" lon="5.57436">
        <ele>336.31</ele>
        <time>2015-08-28T15:07:04Z</time>
      </trkpt>
      <trkpt lat="46.78375" lon="5.57466">
        <ele>331.52</ele>
        <time>2015-08-28T15:07:06Z</time>
      </trkpt>
      <trkpt lat="46.78388" lon="5.57501">
        <ele>327.82</ele>
        <time>2015-08-28T15:07:08Z</time>
      </trkpt>
      <trkpt lat="46.78399" lon="5.57532">
        <ele>326.15</ele>
        <time>2015-08-28T15:07:10Z</time>
      </trkpt>
      <trkpt lat="46.78414" lon="5.5756">
        <ele>323.98</ele>
        <time>2015-08-28T15:07:12Z</time>
      </trkpt>
      <trkpt lat="46.78424" lon="5.57583">
        <ele>322.19</ele>
        <time>2015-08-28T15:07:14Z</time>
      </trkpt>
      <trkpt lat="46.78422" lon="5.57613">
        <ele>317.99</ele>
        <time>2015-08-28T15:07:16Z</time>
      </trkpt>
      <trkpt lat="46.7841" lon="5.57639">
        <ele>309.72</ele>
        <time>2015-08-28T15:07:19Z</time>
      </trkpt>
      <trkpt lat="46.78398" lon="5.57664">
        <ele>303.21</ele>
        <time>2015-08-28T15:07:24Z</time>
      </trkpt>
      <trkpt lat="46.78387" lon="5.57694">
        <ele>299.75</ele>
        <time>2015-08-28T15:07:27Z</time>
      </trkpt>
      <trkpt lat="46.78378" lon="5.57729">
        <ele>295.57</ele>
        <time>2015-08-28T15:07:30Z</time>
      </trkpt>
      <trkpt lat="46.78375" lon="5.57755">
        <ele>292.08</ele>
        <time>2015-08-28T15:07:32Z</time>
      </trkpt>
      <trkpt lat="46.78371" lon="5.57783">
        <ele>288.86</ele>
        <time>2015-08-28T15:07:35Z</time>
      </trkpt>
      <trkpt lat="46.78372" lon="5.5781">
        <ele>286.34</ele>
        <time>2015-08-28T15:07:40Z</time>
      </trkpt>
      <trkpt lat="46.78392" lon="5.57819">
        <ele>285.27</ele>
        <time>2015-08-28T15:07:46Z</time>
      </trkpt>
      <trkpt lat="46.7841" lon="5.57825">
        <ele>286.13</ele>
        <time>2015-08-28T15:07:51Z</time>
      </trkpt>
      <trkpt lat="46.78432" lon="5.57828">
        <ele>286.35</ele>
        <time>2015-08-28T15:07:56Z</time>
      </trkpt>
      <trkpt lat="46.78454" lon="5.57829">
        <ele>284.89</ele>
        <time>2015-08-28T15:08:00Z</time>
      </trkpt>
      <trkpt lat="46.78475" lon="5.57829">
        <ele>285.98</ele>
        <time>2015-08-28T15:08:04Z</time>
      </trkpt>
      <trkpt lat="46.78491" lon="5.5784">
        <ele>287.12</ele>
        <time>2015-08-28T15:08:12Z</time>
      </trkpt>
      <trkpt lat="46.78504" lon="5.57861">
        <ele>287.38</ele>
        <time>2015-08-28T15:08:19Z</time>
      </trkpt>
      <trkpt lat="46.78521" lon="5.57875">
        <ele>287.26</ele>
        <time>2015-08-28T15:08:25Z</time>
      </trkpt>
      <trkpt lat="46.78538" lon="5.57889">
        <ele>287.26</ele>
        <time>2015-08-28T15:08:30Z</time>
      </trkpt>
      <trkpt lat="46.78555" lon="5.57906">
        <ele>286.35</ele>
        <time>2015-08-28T15:08:35Z</time>
      </trkpt>
      <trkpt lat="46.78575" lon="5.57918">
        <ele>286.51</ele>
        <time>2015-08-28T15:08:40Z</time>
      </trkpt>
      <trkpt lat="46.78593" lon="5.57927">
        <ele>287.98</ele>
        <time>2015-08-28T15:08:45Z</time>
      </trkpt>
      <trkpt lat="46.78611" lon="5.5794">
        <ele>289</ele>
        <time>2015-08-28T15:08:50Z</time>
      </trkpt>
      <trkpt lat="46.78629" lon="5.57955">
        <ele>290.13</ele>
        <time>2015-08-28T15:08:56Z</time>
      </trkpt>
      <trkpt lat="46.78647" lon="5.5797">
        <ele>291.72</ele>
        <time>2015-08-28T15:09:02Z</time>
      </trkpt>
      <trkpt lat="46.78666" lon="5.57983">
        <ele>292.25</ele>
        <time>2015-08-28T15:09:08Z</time>
      </trkpt>
      <trkpt lat="46.78683" lon="5.57996">
        <ele>292.26</ele>
        <time>2015-08-28T15:09:13Z</time>
      </trkpt>
      <trkpt lat="46.78663" lon="5.5798">
        <ele>292.26</ele>
        <time>2015-08-28T15:09:26Z</time>
      </trkpt>
      <trkpt lat="46.78643" lon="5.57965">
        <ele>291.63</ele>
        <time>2015-08-28T15:09:30Z</time>
      </trkpt>
      <trkpt lat="46.78624" lon="5.5795">
        <ele>290.43</ele>
        <time>2015-08-28T15:09:33Z</time>
      </trkpt>
      <trkpt lat="46.78604" lon="5.57933">
        <ele>289.4</ele>
        <time>2015-08-28T15:09:36Z</time>
      </trkpt>
      <trkpt lat="46.7858" lon="5.5792">
        <ele>287.9</ele>
        <time>2015-08-28T15:09:39Z</time>
      </trkpt>
      <trkpt lat="46.78562" lon="5.5791">
        <ele>286.17</ele>
        <time>2015-08-28T15:09:41Z</time>
      </trkpt>
      <trkpt lat="46.7854" lon="5.5789">
        <ele>286.25</ele>
        <time>2015-08-28T15:09:44Z</time>
      </trkpt>
      <trkpt lat="46.78521" lon="5.57873">
        <ele>286.26</ele>
        <time>2015-08-28T15:09:47Z</time>
      </trkpt>
      <trkpt lat="46.78502" lon="5.57855">
        <ele>286.26</ele>
        <time>2015-08-28T15:09:50Z</time>
      </trkpt>
      <trkpt lat="46.78492" lon="5.57831">
        <ele>285.76</ele>
        <time>2015-08-28T15:09:53Z</time>
      </trkpt>
      <trkpt lat="46.78504" lon="5.57811">
        <ele>286.98</ele>
        <time>2015-08-28T15:09:57Z</time>
      </trkpt>
      <trkpt lat="46.78517" lon="5.5779">
        <ele>289.59</ele>
        <time>2015-08-28T15:10:02Z</time>
      </trkpt>
      <trkpt lat="46.7853" lon="5.57769">
        <ele>291.86</ele>
        <time>2015-08-28T15:10:07Z</time>
      </trkpt>
      <trkpt lat="46.78546" lon="5.57755">
        <ele>294.87</ele>
        <time>2015-08-28T15:10:12Z</time>
      </trkpt>
      <trkpt lat="46.78565" lon="5.57743">
        <ele>297.7</ele>
        <time>2015-08-28T15:10:18Z</time>
      </trkpt>
      <trkpt lat="46.78585" lon="5.57744">
        <ele>297.8</ele>
        <time>2015-08-28T15:10:25Z</time>
      </trkpt>
      <trkpt lat="46.78602" lon="5.57755">
        <ele>298.23</ele>
        <time>2015-08-28T15:10:32Z</time>
      </trkpt>
      <trkpt lat="46.78619" lon="5.57769">
        <ele>302.42</ele>
        <time>2015-08-28T15:10:40Z</time>
      </trkpt>
      <trkpt lat="46.78636" lon="5.57781">
        <ele>303.25</ele>
        <time>2015-08-28T15:10:47Z</time>
      </trkpt>
      <trkpt lat="46.78653" lon="5.57795">
        <ele>305.12</ele>
        <time>2015-08-28T15:10:54Z</time>
      </trkpt>
      <trkpt lat="46.78671" lon="5.57808">
        <ele>306</ele>
        <time>2015-08-28T15:11:00Z</time>
      </trkpt>
      <trkpt lat="46.78689" lon="5.5782">
        <ele>306.27</ele>
        <time>2015-08-28T15:11:06Z</time>
      </trkpt>
      <trkpt lat="46.78707" lon="5.57831">
        <ele>306.18</ele>
        <time>2015-08-28T15:11:12Z</time>
      </trkpt>
      <trkpt lat="46.78724" lon="5.57843">
        <ele>307.47</ele>
        <time>2015-08-28T15:11:18Z</time>
      </trkpt>
      <trkpt lat="46.78742" lon="5.57853">
        <ele>308.21</ele>
        <time>2015-08-28T15:11:24Z</time>
      </trkpt>
      <trkpt lat="46.78761" lon="5.57863">
        <ele>309.24</ele>
        <time>2015-08-28T15:11:30Z</time>
      </trkpt>
      <trkpt lat="46.7878" lon="5.57872">
        <ele>310.13</ele>
        <time>2015-08-28T15:11:36Z</time>
      </trkpt>
      <trkpt lat="46.78798" lon="5.57879">
        <ele>312.61</ele>
        <time>2015-08-28T15:11:42Z</time>
      </trkpt>
      <trkpt lat="46.78816" lon="5.57887">
        <ele>315.17</ele>
        <time>2015-08-28T15:11:49Z</time>
      </trkpt>
      <trkpt lat="46.78834" lon="5.57897">
        <ele>317.69</ele>
        <time>2015-08-28T15:11:58Z</time>
      </trkpt>
      <trkpt lat="46.7885" lon="5.57908">
        <ele>319.73</ele>
        <time>2015-08-28T15:12:08Z</time>
      </trkpt>
      <trkpt lat="46.78868" lon="5.57919">
        <ele>321.19</ele>
        <time>2015-08-28T15:12:17Z</time>
      </trkpt>
      <trkpt lat="46.78886" lon="5.5793">
        <ele>323.19</ele>
        <time>2015-08-28T15:12:25Z</time>
      </trkpt>
      <trkpt lat="46.78903" lon="5.57939">
        <ele>324.25</ele>
        <time>2015-08-28T15:12:33Z</time>
      </trkpt>
      <trkpt lat="46.78921" lon="5.5795">
        <ele>326.12</ele>
        <time>2015-08-28T15:12:41Z</time>
      </trkpt>
      <trkpt lat="46.78938" lon="5.57961">
        <ele>327.69</ele>
        <time>2015-08-28T15:12:48Z</time>
      </trkpt>
      <trkpt lat="46.78956" lon="5.57972">
        <ele>329.13</ele>
        <time>2015-08-28T15:12:55Z</time>
      </trkpt>
      <trkpt lat="46.78973" lon="5.57981">
        <ele>330.99</ele>
        <time>2015-08-28T15:13:02Z</time>
      </trkpt>
      <trkpt lat="46.78991" lon="5.57988">
        <ele>331.77</ele>
        <time>2015-08-28T15:13:10Z</time>
      </trkpt>
      <trkpt lat="46.79009" lon="5.57983">
        <ele>333.99</ele>
        <time>2015-08-28T15:13:19Z</time>
      </trkpt>
      <trkpt lat="46.79028" lon="5.57982">
        <ele>336.13</ele>
        <time>2015-08-28T15:13:29Z</time>
      </trkpt>
      <trkpt lat="46.79048" lon="5.57984">
        <ele>337.95</ele>
        <time>2015-08-28T15:13:38Z</time>
      </trkpt>
      <trkpt lat="46.79066" lon="5.57985">
        <ele>338.25</ele>
        <time>2015-08-28T15:13:45Z</time>
      </trkpt>
      <trkpt lat="46.79085" lon="5.5799">
        <ele>338.41</ele>
        <time>2015-08-28T15:13:51Z</time>
      </trkpt>
      <trkpt lat="46.79104" lon="5.58">
        <ele>339.24</ele>
        <time>2015-08-28T15:13:57Z</time>
      </trkpt>
      <trkpt lat="46.79123" lon="5.5801">
        <ele>339.26</ele>
        <time>2015-08-28T15:14:03Z</time>
      </trkpt>
      <trkpt lat="46.79141" lon="5.58022">
        <ele>338.62</ele>
        <time>2015-08-28T15:14:09Z</time>
      </trkpt>
      <trkpt lat="46.79158" lon="5.58034">
        <ele>340.14</ele>
        <time>2015-08-28T15:14:14Z</time>
      </trkpt>
      <trkpt lat="46.79175" lon="5.58043">
        <ele>341.19</ele>
        <time>2015-08-28T15:14:19Z</time>
      </trkpt>
      <trkpt lat="46.79195" lon="5.58049">
        <ele>341.19</ele>
        <time>2015-08-28T15:14:25Z</time>
      </trkpt>
      <trkpt lat="46.79215" lon="5.58056">
        <ele>343.38</ele>
        <time>2015-08-28T15:14:31Z</time>
      </trkpt>
      <trkpt lat="46.79235" lon="5.58064">
        <ele>343.76</ele>
        <time>2015-08-28T15:14:37Z</time>
      </trkpt>
      <trkpt lat="46.79255" lon="5.58074">
        <ele>343.46</ele>
        <time>2015-08-28T15:14:42Z</time>
      </trkpt>
      <trkpt lat="46.79273" lon="5.58084">
        <ele>343.27</ele>
        <time>2015-08-28T15:14:46Z</time>
      </trkpt>
      <trkpt lat="46.79291" lon="5.58094">
        <ele>343.26</ele>
        <time>2015-08-28T15:14:50Z</time>
      </trkpt>
      <trkpt lat="46.79311" lon="5.58103">
        <ele>343.76</ele>
        <time>2015-08-28T15:14:54Z</time>
      </trkpt>
      <trkpt lat="46.7933" lon="5.58112">
        <ele>344.23</ele>
        <time>2015-08-28T15:14:58Z</time>
      </trkpt>
      <trkpt lat="46.79349" lon="5.58121">
        <ele>344.26</ele>
        <time>2015-08-28T15:15:02Z</time>
      </trkpt>
      <trkpt lat="46.79368" lon="5.58127">
        <ele>345.88</ele>
        <time>2015-08-28T15:15:06Z</time>
      </trkpt>
      <trkpt lat="46.79386" lon="5.58118">
        <ele>348.95</ele>
        <time>2015-08-28T15:15:12Z</time>
      </trkpt>
      <trkpt lat="46.79396" lon="5.58093">
        <ele>352.68</ele>
        <time>2015-08-28T15:15:21Z</time>
      </trkpt>
      <trkpt lat="46.7941" lon="5.58074">
        <ele>356.44</ele>
        <time>2015-08-28T15:15:31Z</time>
      </trkpt>
      <trkpt lat="46.79427" lon="5.5806">
        <ele>359.86</ele>
        <time>2015-08-28T15:15:42Z</time>
      </trkpt>
      <trkpt lat="46.79442" lon="5.58044">
        <ele>364.22</ele>
        <time>2015-08-28T15:15:55Z</time>
      </trkpt>
      <trkpt lat="46.79461" lon="5.58046">
        <ele>362.57</ele>
        <time>2015-08-28T15:19:00Z</time>
      </trkpt>
      <trkpt lat="46.79462" lon="5.58017">
        <ele>360.57</ele>
        <time>2015-08-28T15:22:15Z</time>
      </trkpt>
      <trkpt lat="46.79476" lon="5.57997">
        <ele>358.3</ele>
        <time>2015-08-28T15:22:18Z</time>
      </trkpt>
      <trkpt lat="46.79488" lon="5.57971">
        <ele>354.95</ele>
        <time>2015-08-28T15:22:22Z</time>
      </trkpt>
      <trkpt lat="46.79501" lon="5.57947">
        <ele>352.11</ele>
        <time>2015-08-28T15:22:26Z</time>
      </trkpt>
      <trkpt lat="46.79522" lon="5.57946">
        <ele>349.74</ele>
        <time>2015-08-28T15:22:29Z</time>
      </trkpt>
      <trkpt lat="46.79547" lon="5.57952">
        <ele>347.94</ele>
        <time>2015-08-28T15:22:32Z</time>
      </trkpt>
      <trkpt lat="46.79565" lon="5.57951">
        <ele>347.18</ele>
        <time>2015-08-28T15:22:34Z</time>
      </trkpt>
      <trkpt lat="46.79591" lon="5.57944">
        <ele>345.12</ele>
        <time>2015-08-28T15:22:37Z</time>
      </trkpt>
      <trkpt lat="46.79617" lon="5.57938">
        <ele>342.24</ele>
        <time>2015-08-28T15:22:40Z</time>
      </trkpt>
      <trkpt lat="46.79644" lon="5.57935">
        <ele>339.25</ele>
        <time>2015-08-28T15:22:43Z</time>
      </trkpt>
      <trkpt lat="46.79664" lon="5.57932">
        <ele>336.51</ele>
        <time>2015-08-28T15:22:45Z</time>
      </trkpt>
      <trkpt lat="46.79684" lon="5.57933">
        <ele>332.82</ele>
        <time>2015-08-28T15:22:47Z</time>
      </trkpt>
      <trkpt lat="46.79706" lon="5.57934">
        <ele>329.9</ele>
        <time>2015-08-28T15:22:49Z</time>
      </trkpt>
      <trkpt lat="46.79729" lon="5.57936">
        <ele>327.92</ele>
        <time>2015-08-28T15:22:51Z</time>
      </trkpt>
      <trkpt lat="46.7975" lon="5.57938">
        <ele>326.17</ele>
        <time>2015-08-28T15:22:53Z</time>
      </trkpt>
      <trkpt lat="46.7977" lon="5.57937">
        <ele>324.99</ele>
        <time>2015-08-28T15:22:55Z</time>
      </trkpt>
      <trkpt lat="46.7979" lon="5.57935">
        <ele>322.44</ele>
        <time>2015-08-28T15:22:57Z</time>
      </trkpt>
      <trkpt lat="46.79812" lon="5.57935">
        <ele>319.28</ele>
        <time>2015-08-28T15:23:00Z</time>
      </trkpt>
      <trkpt lat="46.79837" lon="5.57934">
        <ele>315.76</ele>
        <time>2015-08-28T15:23:03Z</time>
      </trkpt>
      <trkpt lat="46.79858" lon="5.57931">
        <ele>311.07</ele>
        <time>2015-08-28T15:23:06Z</time>
      </trkpt>
      <trkpt lat="46.79883" lon="5.57927">
        <ele>305.23</ele>
        <time>2015-08-28T15:23:09Z</time>
      </trkpt>
      <trkpt lat="46.79905" lon="5.57924">
        <ele>300.88</ele>
        <time>2015-08-28T15:23:12Z</time>
      </trkpt>
      <trkpt lat="46.7993" lon="5.57912">
        <ele>295.96</ele>
        <time>2015-08-28T15:23:15Z</time>
      </trkpt>
      <trkpt lat="46.79949" lon="5.57902">
        <ele>292.68</ele>
        <time>2015-08-28T15:23:17Z</time>
      </trkpt>
      <trkpt lat="46.79972" lon="5.57888">
        <ele>289.31</ele>
        <time>2015-08-28T15:23:20Z</time>
      </trkpt>
      <trkpt lat="46.79996" lon="5.57877">
        <ele>285.89</ele>
        <time>2015-08-28T15:23:23Z</time>
      </trkpt>
      <trkpt lat="46.80016" lon="5.57871">
        <ele>283.96</ele>
        <time>2015-08-28T15:23:26Z</time>
      </trkpt>
      <trkpt lat="46.80038" lon="5.57865">
        <ele>280.47</ele>
        <time>2015-08-28T15:23:29Z</time>
      </trkpt>
      <trkpt lat="46.80063" lon="5.57867">
        <ele>276.41</ele>
        <time>2015-08-28T15:23:32Z</time>
      </trkpt>
      <trkpt lat="46.8009" lon="5.57865">
        <ele>273.28</ele>
        <time>2015-08-28T15:23:35Z</time>
      </trkpt>
      <trkpt lat="46.80114" lon="5.57862">
        <ele>270.26</ele>
        <time>2015-08-28T15:23:38Z</time>
      </trkpt>
      <trkpt lat="46.80136" lon="5.57857">
        <ele>267.26</ele>
        <time>2015-08-28T15:23:41Z</time>
      </trkpt>
      <trkpt lat="46.80159" lon="5.57853">
        <ele>264.26</ele>
        <time>2015-08-28T15:23:44Z</time>
      </trkpt>
      <trkpt lat="46.80182" lon="5.5785">
        <ele>260.76</ele>
        <time>2015-08-28T15:23:47Z</time>
      </trkpt>
      <trkpt lat="46.80206" lon="5.57849">
        <ele>257.32</ele>
        <time>2015-08-28T15:23:50Z</time>
      </trkpt>
      <trkpt lat="46.80228" lon="5.57846">
        <ele>254.26</ele>
        <time>2015-08-28T15:23:53Z</time>
      </trkpt>
      <trkpt lat="46.80252" lon="5.57839">
        <ele>252.01</ele>
        <time>2015-08-28T15:23:56Z</time>
      </trkpt>
      <trkpt lat="46.80279" lon="5.57835">
        <ele>249.23</ele>
        <time>2015-08-28T15:23:59Z</time>
      </trkpt>
      <trkpt lat="46.80299" lon="5.57834">
        <ele>248.38</ele>
        <time>2015-08-28T15:24:02Z</time>
      </trkpt>
      <trkpt lat="46.80319" lon="5.57849">
        <ele>247.51</ele>
        <time>2015-08-28T15:24:06Z</time>
      </trkpt>
      <trkpt lat="46.80338" lon="5.57869">
        <ele>247.27</ele>
        <time>2015-08-28T15:24:10Z</time>
      </trkpt>
      <trkpt lat="46.80359" lon="5.57882">
        <ele>248.01</ele>
        <time>2015-08-28T15:24:14Z</time>
      </trkpt>
      <trkpt lat="46.80382" lon="5.57888">
        <ele>248.99</ele>
        <time>2015-08-28T15:24:18Z</time>
      </trkpt>
      <trkpt lat="46.80404" lon="5.57886">
        <ele>248.49</ele>
        <time>2015-08-28T15:24:22Z</time>
      </trkpt>
      <trkpt lat="46.80422" lon="5.57899">
        <ele>248.31</ele>
        <time>2015-08-28T15:24:30Z</time>
      </trkpt>
      <trkpt lat="46.80438" lon="5.57913">
        <ele>247.29</ele>
        <time>2015-08-28T15:24:35Z</time>
      </trkpt>
      <trkpt lat="46.80459" lon="5.57927">
        <ele>246.76</ele>
        <time>2015-08-28T15:24:40Z</time>
      </trkpt>
      <trkpt lat="46.80477" lon="5.57937">
        <ele>246.54</ele>
        <time>2015-08-28T15:24:44Z</time>
      </trkpt>
      <trkpt lat="46.80496" lon="5.57947">
        <ele>245.77</ele>
        <time>2015-08-28T15:24:48Z</time>
      </trkpt>
      <trkpt lat="46.80517" lon="5.57958">
        <ele>244.54</ele>
        <time>2015-08-28T15:24:52Z</time>
      </trkpt>
      <trkpt lat="46.80539" lon="5.57966">
        <ele>243.52</ele>
        <time>2015-08-28T15:24:56Z</time>
      </trkpt>
      <trkpt lat="46.80561" lon="5.57977">
        <ele>243.27</ele>
        <time>2015-08-28T15:25:00Z</time>
      </trkpt>
      <trkpt lat="46.8058" lon="5.57983">
        <ele>243.26</ele>
        <time>2015-08-28T15:25:04Z</time>
      </trkpt>
      <trkpt lat="46.80596" lon="5.5797">
        <ele>243.13</ele>
        <time>2015-08-28T15:25:08Z</time>
      </trkpt>
      <trkpt lat="46.80611" lon="5.57949">
        <ele>242.78</ele>
        <time>2015-08-28T15:25:13Z</time>
      </trkpt>
      <trkpt lat="46.8062" lon="5.5792">
        <ele>243.69</ele>
        <time>2015-08-28T15:25:20Z</time>
      </trkpt>
      <trkpt lat="46.80636" lon="5.57901">
        <ele>245.78</ele>
        <time>2015-08-28T15:25:24Z</time>
      </trkpt>
      <trkpt lat="46.80642" lon="5.57872">
        <ele>247.22</ele>
        <time>2015-08-28T15:25:30Z</time>
      </trkpt>
      <trkpt lat="46.80636" lon="5.57845">
        <ele>248.46</ele>
        <time>2015-08-28T15:25:36Z</time>
      </trkpt>
      <trkpt lat="46.80629" lon="5.5782">
        <ele>250.71</ele>
        <time>2015-08-28T15:25:42Z</time>
      </trkpt>
      <trkpt lat="46.80622" lon="5.57796">
        <ele>252.94</ele>
        <time>2015-08-28T15:25:49Z</time>
      </trkpt>
      <trkpt lat="46.80618" lon="5.57769">
        <ele>255.24</ele>
        <time>2015-08-28T15:26:01Z</time>
      </trkpt>
      <trkpt lat="46.80622" lon="5.57797">
        <ele>253.79</ele>
        <time>2015-08-28T15:26:16Z</time>
      </trkpt>
      <trkpt lat="46.80614" lon="5.5777">
        <ele>253.75</ele>
        <time>2015-08-28T15:26:32Z</time>
      </trkpt>
      <trkpt lat="46.80605" lon="5.57745">
        <ele>255.72</ele>
        <time>2015-08-28T15:26:40Z</time>
      </trkpt>
      <trkpt lat="46.80616" lon="5.57769">
        <ele>254.1</ele>
        <time>2015-08-28T15:26:59Z</time>
      </trkpt>
      <trkpt lat="46.80622" lon="5.57797">
        <ele>252.33</ele>
        <time>2015-08-28T15:27:05Z</time>
      </trkpt>
      <trkpt lat="46.8061" lon="5.57819">
        <ele>249.53</ele>
        <time>2015-08-28T15:27:13Z</time>
      </trkpt>
      <trkpt lat="46.80609" lon="5.57847">
        <ele>249.21</ele>
        <time>2015-08-28T15:27:23Z</time>
      </trkpt>
      <trkpt lat="46.80611" lon="5.57819">
        <ele>249.26</ele>
        <time>2015-08-28T15:27:39Z</time>
      </trkpt>
      <trkpt lat="46.80622" lon="5.57798">
        <ele>251.91</ele>
        <time>2015-08-28T15:27:49Z</time>
      </trkpt>
      <trkpt lat="46.80614" lon="5.57772">
        <ele>254.13</ele>
        <time>2015-08-28T15:28:00Z</time>
      </trkpt>
      <trkpt lat="46.80607" lon="5.57746">
        <ele>255.99</ele>
        <time>2015-08-28T15:28:09Z</time>
      </trkpt>
      <trkpt lat="46.80594" lon="5.57727">
        <ele>258.74</ele>
        <time>2015-08-28T15:28:18Z</time>
      </trkpt>
      <trkpt lat="46.80578" lon="5.57714">
        <ele>261.12</ele>
        <time>2015-08-28T15:28:27Z</time>
      </trkpt>
      <trkpt lat="46.8056" lon="5.57704">
        <ele>264.18</ele>
        <time>2015-08-28T15:28:37Z</time>
      </trkpt>
      <trkpt lat="46.80542" lon="5.57696">
        <ele>267.09</ele>
        <time>2015-08-28T15:28:45Z</time>
      </trkpt>
      <trkpt lat="46.80525" lon="5.57685">
        <ele>267.28</ele>
        <time>2015-08-28T15:28:53Z</time>
      </trkpt>
      <trkpt lat="46.80505" lon="5.57677">
        <ele>265.88</ele>
        <time>2015-08-28T15:28:58Z</time>
      </trkpt>
      <trkpt lat="46.80489" lon="5.57663">
        <ele>263.84</ele>
        <time>2015-08-28T15:29:03Z</time>
      </trkpt>
      <trkpt lat="46.80489" lon="5.57634">
        <ele>264.18</ele>
        <time>2015-08-28T15:29:11Z</time>
      </trkpt>
      <trkpt lat="46.8049" lon="5.57603">
        <ele>265.69</ele>
        <time>2015-08-28T15:29:18Z</time>
      </trkpt>
      <trkpt lat="46.80492" lon="5.57577">
        <ele>267.31</ele>
        <time>2015-08-28T15:29:24Z</time>
      </trkpt>
      <trkpt lat="46.80497" lon="5.5755">
        <ele>266.76</ele>
        <time>2015-08-28T15:29:28Z</time>
      </trkpt>
      <trkpt lat="46.8051" lon="5.57528">
        <ele>263.87</ele>
        <time>2015-08-28T15:29:34Z</time>
      </trkpt>
      <trkpt lat="46.80532" lon="5.57512">
        <ele>262.05</ele>
        <time>2015-08-28T15:29:38Z</time>
      </trkpt>
      <trkpt lat="46.80554" lon="5.575">
        <ele>259.23</ele>
        <time>2015-08-28T15:29:41Z</time>
      </trkpt>
      <trkpt lat="46.80579" lon="5.57491">
        <ele>256.75</ele>
        <time>2015-08-28T15:29:44Z</time>
      </trkpt>
      <trkpt lat="46.80605" lon="5.57489">
        <ele>255.44</ele>
        <time>2015-08-28T15:29:47Z</time>
      </trkpt>
      <trkpt lat="46.8063" lon="5.57488">
        <ele>254.78</ele>
        <time>2015-08-28T15:29:50Z</time>
      </trkpt>
      <trkpt lat="46.80652" lon="5.57483">
        <ele>253.82</ele>
        <time>2015-08-28T15:29:53Z</time>
      </trkpt>
      <trkpt lat="46.80668" lon="5.57463">
        <ele>253.45</ele>
        <time>2015-08-28T15:29:56Z</time>
      </trkpt>
      <trkpt lat="46.80681" lon="5.57443">
        <ele>253.28</ele>
        <time>2015-08-28T15:29:59Z</time>
      </trkpt>
      <trkpt lat="46.80689" lon="5.5742">
        <ele>254.2</ele>
        <time>2015-08-28T15:30:03Z</time>
      </trkpt>
      <trkpt lat="46.80693" lon="5.57391">
        <ele>256.69</ele>
        <time>2015-08-28T15:30:10Z</time>
      </trkpt>
      <trkpt lat="46.80695" lon="5.57363">
        <ele>260.05</ele>
        <time>2015-08-28T15:30:17Z</time>
      </trkpt>
      <trkpt lat="46.80696" lon="5.57334">
        <ele>261.19</ele>
        <time>2015-08-28T15:30:24Z</time>
      </trkpt>
      <trkpt lat="46.80693" lon="5.57304">
        <ele>261.52</ele>
        <time>2015-08-28T15:30:31Z</time>
      </trkpt>
      <trkpt lat="46.80684" lon="5.57278">
        <ele>261.39</ele>
        <time>2015-08-28T15:30:36Z</time>
      </trkpt>
      <trkpt lat="46.80676" lon="5.57254">
        <ele>261.27</ele>
        <time>2015-08-28T15:30:40Z</time>
      </trkpt>
      <trkpt lat="46.80667" lon="5.5723">
        <ele>260.32</ele>
        <time>2015-08-28T15:30:44Z</time>
      </trkpt>
      <trkpt lat="46.80664" lon="5.57199">
        <ele>260.26</ele>
        <time>2015-08-28T15:30:49Z</time>
      </trkpt>
      <trkpt lat="46.80674" lon="5.57175">
        <ele>259.38</ele>
        <time>2015-08-28T15:30:53Z</time>
      </trkpt>
      <trkpt lat="46.80689" lon="5.57152">
        <ele>258.33</ele>
        <time>2015-08-28T15:30:57Z</time>
      </trkpt>
      <trkpt lat="46.80699" lon="5.57128">
        <ele>257.95</ele>
        <time>2015-08-28T15:31:01Z</time>
      </trkpt>
      <trkpt lat="46.80708" lon="5.57104">
        <ele>257.3</ele>
        <time>2015-08-28T15:31:05Z</time>
      </trkpt>
      <trkpt lat="46.80718" lon="5.57078">
        <ele>255.57</ele>
        <time>2015-08-28T15:31:09Z</time>
      </trkpt>
      <trkpt lat="46.80732" lon="5.57052">
        <ele>253.9</ele>
        <time>2015-08-28T15:31:13Z</time>
      </trkpt>
      <trkpt lat="46.80744" lon="5.57032">
        <ele>252.84</ele>
        <time>2015-08-28T15:31:16Z</time>
      </trkpt>
      <trkpt lat="46.80759" lon="5.57013">
        <ele>250.95</ele>
        <time>2015-08-28T15:31:19Z</time>
      </trkpt>
      <trkpt lat="46.80775" lon="5.56996">
        <ele>249.84</ele>
        <time>2015-08-28T15:31:22Z</time>
      </trkpt>
      <trkpt lat="46.80791" lon="5.56981">
        <ele>247.96</ele>
        <time>2015-08-28T15:31:25Z</time>
      </trkpt>
      <trkpt lat="46.80812" lon="5.5697">
        <ele>246.59</ele>
        <time>2015-08-28T15:31:28Z</time>
      </trkpt>
      <trkpt lat="46.80834" lon="5.56966">
        <ele>245.42</ele>
        <time>2015-08-28T15:31:31Z</time>
      </trkpt>
      <trkpt lat="46.80854" lon="5.56951">
        <ele>244.4</ele>
        <time>2015-08-28T15:31:34Z</time>
      </trkpt>
      <trkpt lat="46.80871" lon="5.56931">
        <ele>244.28</ele>
        <time>2015-08-28T15:31:37Z</time>
      </trkpt>
      <trkpt lat="46.8088" lon="5.56908">
        <ele>244.26</ele>
        <time>2015-08-28T15:31:40Z</time>
      </trkpt>
      <trkpt lat="46.80884" lon="5.56879">
        <ele>244.26</ele>
        <time>2015-08-28T15:31:44Z</time>
      </trkpt>
      <trkpt lat="46.80887" lon="5.56849">
        <ele>245.19</ele>
        <time>2015-08-28T15:31:50Z</time>
      </trkpt>
      <trkpt lat="46.80872" lon="5.56835">
        <ele>247.12</ele>
        <time>2015-08-28T15:31:57Z</time>
      </trkpt>
      <trkpt lat="46.80851" lon="5.56829">
        <ele>248.97</ele>
        <time>2015-08-28T15:32:02Z</time>
      </trkpt>
      <trkpt lat="46.80829" lon="5.56823">
        <ele>250.62</ele>
        <time>2015-08-28T15:32:07Z</time>
      </trkpt>
      <trkpt lat="46.80807" lon="5.56817">
        <ele>251.24</ele>
        <time>2015-08-28T15:32:12Z</time>
      </trkpt>
      <trkpt lat="46.80786" lon="5.56813">
        <ele>252.73</ele>
        <time>2015-08-28T15:32:17Z</time>
      </trkpt>
      <trkpt lat="46.80764" lon="5.56809">
        <ele>253.24</ele>
        <time>2015-08-28T15:32:22Z</time>
      </trkpt>
      <trkpt lat="46.80745" lon="5.56805">
        <ele>253.26</ele>
        <time>2015-08-28T15:32:26Z</time>
      </trkpt>
      <trkpt lat="46.80724" lon="5.56799">
        <ele>254.19</ele>
        <time>2015-08-28T15:32:30Z</time>
      </trkpt>
      <trkpt lat="46.80702" lon="5.56789">
        <ele>254.25</ele>
        <time>2015-08-28T15:32:34Z</time>
      </trkpt>
      <trkpt lat="46.80681" lon="5.56779">
        <ele>254.26</ele>
        <time>2015-08-28T15:32:38Z</time>
      </trkpt>
      <trkpt lat="46.80659" lon="5.56766">
        <ele>254.26</ele>
        <time>2015-08-28T15:32:42Z</time>
      </trkpt>
      <trkpt lat="46.80638" lon="5.56753">
        <ele>254.26</ele>
        <time>2015-08-28T15:32:46Z</time>
      </trkpt>
      <trkpt lat="46.80618" lon="5.5674">
        <ele>254.26</ele>
        <time>2015-08-28T15:32:50Z</time>
      </trkpt>
      <trkpt lat="46.80597" lon="5.56726">
        <ele>254.26</ele>
        <time>2015-08-28T15:32:54Z</time>
      </trkpt>
      <trkpt lat="46.80577" lon="5.56711">
        <ele>255.13</ele>
        <time>2015-08-28T15:32:58Z</time>
      </trkpt>
      <trkpt lat="46.80556" lon="5.56695">
        <ele>255.25</ele>
        <time>2015-08-28T15:33:02Z</time>
      </trkpt>
      <trkpt lat="46.80536" lon="5.56678">
        <ele>256.01</ele>
        <time>2015-08-28T15:33:06Z</time>
      </trkpt>
      <trkpt lat="46.80516" lon="5.56663">
        <ele>256.24</ele>
        <time>2015-08-28T15:33:10Z</time>
      </trkpt>
      <trkpt lat="46.80496" lon="5.56648">
        <ele>257.13</ele>
        <time>2015-08-28T15:33:14Z</time>
      </trkpt>
      <trkpt lat="46.80477" lon="5.56632">
        <ele>257.25</ele>
        <time>2015-08-28T15:33:18Z</time>
      </trkpt>
      <trkpt lat="46.80458" lon="5.56617">
        <ele>258.13</ele>
        <time>2015-08-28T15:33:22Z</time>
      </trkpt>
      <trkpt lat="46.8044" lon="5.56601">
        <ele>258.25</ele>
        <time>2015-08-28T15:33:26Z</time>
      </trkpt>
      <trkpt lat="46.80423" lon="5.56587">
        <ele>258.26</ele>
        <time>2015-08-28T15:33:30Z</time>
      </trkpt>
      <trkpt lat="46.80405" lon="5.56573">
        <ele>259.63</ele>
        <time>2015-08-28T15:33:34Z</time>
      </trkpt>
      <trkpt lat="46.80389" lon="5.5656">
        <ele>261.09</ele>
        <time>2015-08-28T15:33:38Z</time>
      </trkpt>
      <trkpt lat="46.8037" lon="5.56543">
        <ele>262.22</ele>
        <time>2015-08-28T15:33:43Z</time>
      </trkpt>
      <trkpt lat="46.80353" lon="5.56528">
        <ele>264.1</ele>
        <time>2015-08-28T15:33:48Z</time>
      </trkpt>
      <trkpt lat="46.80337" lon="5.56513">
        <ele>265.22</ele>
        <time>2015-08-28T15:33:53Z</time>
      </trkpt>
      <trkpt lat="46.80321" lon="5.565">
        <ele>266.97</ele>
        <time>2015-08-28T15:33:58Z</time>
      </trkpt>
      <trkpt lat="46.80302" lon="5.56487">
        <ele>267.25</ele>
        <time>2015-08-28T15:34:04Z</time>
      </trkpt>
      <trkpt lat="46.80286" lon="5.56478">
        <ele>267.76</ele>
        <time>2015-08-28T15:34:09Z</time>
      </trkpt>
      <trkpt lat="46.80266" lon="5.56467">
        <ele>269.94</ele>
        <time>2015-08-28T15:34:15Z</time>
      </trkpt>
      <trkpt lat="46.80247" lon="5.56458">
        <ele>271.19</ele>
        <time>2015-08-28T15:34:21Z</time>
      </trkpt>
      <trkpt lat="46.80228" lon="5.56448">
        <ele>269</ele>
        <time>2015-08-28T15:34:28Z</time>
      </trkpt>
      <trkpt lat="46.8021" lon="5.56439">
        <ele>273.88</ele>
        <time>2015-08-28T15:34:35Z</time>
      </trkpt>
      <trkpt lat="46.8019" lon="5.56429">
        <ele>276.1</ele>
        <time>2015-08-28T15:34:42Z</time>
      </trkpt>
      <trkpt lat="46.80171" lon="5.56419">
        <ele>278.19</ele>
        <time>2015-08-28T15:34:49Z</time>
      </trkpt>
      <trkpt lat="46.80154" lon="5.56409">
        <ele>280.12</ele>
        <time>2015-08-28T15:34:55Z</time>
      </trkpt>
      <trkpt lat="46.80137" lon="5.56399">
        <ele>282.68</ele>
        <time>2015-08-28T15:35:01Z</time>
      </trkpt>
      <trkpt lat="46.8012" lon="5.56385">
        <ele>284.94</ele>
        <time>2015-08-28T15:35:07Z</time>
      </trkpt>
      <trkpt lat="46.80104" lon="5.56369">
        <ele>286.13</ele>
        <time>2015-08-28T15:35:13Z</time>
      </trkpt>
      <trkpt lat="46.80088" lon="5.56352">
        <ele>287.24</ele>
        <time>2015-08-28T15:35:19Z</time>
      </trkpt>
      <trkpt lat="46.80072" lon="5.56337">
        <ele>288.69</ele>
        <time>2015-08-28T15:35:25Z</time>
      </trkpt>
      <trkpt lat="46.80057" lon="5.56322">
        <ele>290.12</ele>
        <time>2015-08-28T15:35:31Z</time>
      </trkpt>
      <trkpt lat="46.80042" lon="5.56306">
        <ele>291.24</ele>
        <time>2015-08-28T15:35:37Z</time>
      </trkpt>
      <trkpt lat="46.80025" lon="5.56292">
        <ele>292.19</ele>
        <time>2015-08-28T15:35:43Z</time>
      </trkpt>
      <trkpt lat="46.80009" lon="5.56275">
        <ele>293.19</ele>
        <time>2015-08-28T15:35:49Z</time>
      </trkpt>
      <trkpt lat="46.79993" lon="5.56257">
        <ele>293.26</ele>
        <time>2015-08-28T15:35:54Z</time>
      </trkpt>
      <trkpt lat="46.79976" lon="5.56243">
        <ele>293.26</ele>
        <time>2015-08-28T15:35:58Z</time>
      </trkpt>
      <trkpt lat="46.7996" lon="5.56224">
        <ele>293.26</ele>
        <time>2015-08-28T15:36:02Z</time>
      </trkpt>
      <trkpt lat="46.79944" lon="5.56208">
        <ele>293.26</ele>
        <time>2015-08-28T15:36:06Z</time>
      </trkpt>
      <trkpt lat="46.79925" lon="5.56191">
        <ele>292.76</ele>
        <time>2015-08-28T15:36:10Z</time>
      </trkpt>
      <trkpt lat="46.79908" lon="5.5618">
        <ele>293.07</ele>
        <time>2015-08-28T15:36:13Z</time>
      </trkpt>
      <trkpt lat="46.7989" lon="5.56174">
        <ele>293.11</ele>
        <time>2015-08-28T15:36:16Z</time>
      </trkpt>
      <trkpt lat="46.79872" lon="5.5617">
        <ele>293.24</ele>
        <time>2015-08-28T15:36:19Z</time>
      </trkpt>
      <trkpt lat="46.79854" lon="5.56165">
        <ele>293.25</ele>
        <time>2015-08-28T15:36:22Z</time>
      </trkpt>
      <trkpt lat="46.79835" lon="5.5616">
        <ele>293.26</ele>
        <time>2015-08-28T15:36:25Z</time>
      </trkpt>
      <trkpt lat="46.79816" lon="5.56151">
        <ele>293.26</ele>
        <time>2015-08-28T15:36:28Z</time>
      </trkpt>
      <trkpt lat="46.79799" lon="5.56138">
        <ele>293.26</ele>
        <time>2015-08-28T15:36:31Z</time>
      </trkpt>
      <trkpt lat="46.79784" lon="5.56119">
        <ele>293.76</ele>
        <time>2015-08-28T15:36:34Z</time>
      </trkpt>
      <trkpt lat="46.79768" lon="5.56097">
        <ele>294.66</ele>
        <time>2015-08-28T15:36:38Z</time>
      </trkpt>
      <trkpt lat="46.79753" lon="5.56075">
        <ele>296.59</ele>
        <time>2015-08-28T15:36:42Z</time>
      </trkpt>
      <trkpt lat="46.79739" lon="5.56052">
        <ele>298.59</ele>
        <time>2015-08-28T15:36:46Z</time>
      </trkpt>
      <trkpt lat="46.79724" lon="5.56031">
        <ele>300.84</ele>
        <time>2015-08-28T15:36:50Z</time>
      </trkpt>
      <trkpt lat="46.79709" lon="5.5601">
        <ele>301.73</ele>
        <time>2015-08-28T15:36:54Z</time>
      </trkpt>
      <trkpt lat="46.79695" lon="5.55987">
        <ele>303.6</ele>
        <time>2015-08-28T15:36:58Z</time>
      </trkpt>
      <trkpt lat="46.79679" lon="5.55968">
        <ele>305.59</ele>
        <time>2015-08-28T15:37:02Z</time>
      </trkpt>
      <trkpt lat="46.79659" lon="5.55959">
        <ele>306.97</ele>
        <time>2015-08-28T15:37:06Z</time>
      </trkpt>
      <trkpt lat="46.79653" lon="5.55929">
        <ele>308.25</ele>
        <time>2015-08-28T15:37:15Z</time>
      </trkpt>
      <trkpt lat="46.79657" lon="5.55897">
        <ele>307.76</ele>
        <time>2015-08-28T15:37:19Z</time>
      </trkpt>
      <trkpt lat="46.7966" lon="5.5587">
        <ele>307.32</ele>
        <time>2015-08-28T15:37:22Z</time>
      </trkpt>
      <trkpt lat="46.79662" lon="5.55841">
        <ele>307.26</ele>
        <time>2015-08-28T15:37:25Z</time>
      </trkpt>
      <trkpt lat="46.79654" lon="5.55812">
        <ele>306.51</ele>
        <time>2015-08-28T15:37:28Z</time>
      </trkpt>
      <trkpt lat="46.79637" lon="5.55794">
        <ele>305.79</ele>
        <time>2015-08-28T15:37:31Z</time>
      </trkpt>
      <trkpt lat="46.79617" lon="5.55778">
        <ele>304.82</ele>
        <time>2015-08-28T15:37:34Z</time>
      </trkpt>
      <trkpt lat="46.79599" lon="5.55759">
        <ele>303.83</ele>
        <time>2015-08-28T15:37:37Z</time>
      </trkpt>
      <trkpt lat="46.79579" lon="5.55742">
        <ele>302.83</ele>
        <time>2015-08-28T15:37:40Z</time>
      </trkpt>
      <trkpt lat="46.79558" lon="5.55722">
        <ele>301.58</ele>
        <time>2015-08-28T15:37:43Z</time>
      </trkpt>
      <trkpt lat="46.79537" lon="5.55701">
        <ele>299.92</ele>
        <time>2015-08-28T15:37:46Z</time>
      </trkpt>
      <trkpt lat="46.79514" lon="5.55681">
        <ele>298.84</ele>
        <time>2015-08-28T15:37:49Z</time>
      </trkpt>
      <trkpt lat="46.79498" lon="5.55664">
        <ele>296.95</ele>
        <time>2015-08-28T15:37:52Z</time>
      </trkpt>
      <trkpt lat="46.79513" lon="5.55647">
        <ele>295.14</ele>
        <time>2015-08-28T15:38:04Z</time>
      </trkpt>
      <trkpt lat="46.79527" lon="5.55628">
        <ele>296.69</ele>
        <time>2015-08-28T15:38:10Z</time>
      </trkpt>
      <trkpt lat="46.79541" lon="5.55607">
        <ele>297.75</ele>
        <time>2015-08-28T15:38:17Z</time>
      </trkpt>
      <trkpt lat="46.79553" lon="5.55586">
        <ele>298.25</ele>
        <time>2015-08-28T15:38:23Z</time>
      </trkpt>
      <trkpt lat="46.79567" lon="5.5556">
        <ele>296.76</ele>
        <time>2015-08-28T15:38:28Z</time>
      </trkpt>
      <trkpt lat="46.79582" lon="5.55541">
        <ele>294.44</ele>
        <time>2015-08-28T15:38:31Z</time>
      </trkpt>
      <trkpt lat="46.796" lon="5.55514">
        <ele>290.78</ele>
        <time>2015-08-28T15:38:34Z</time>
      </trkpt>
      <trkpt lat="46.79611" lon="5.55491">
        <ele>287.89</ele>
        <time>2015-08-28T15:38:36Z</time>
      </trkpt>
      <trkpt lat="46.79627" lon="5.55464">
        <ele>284.34</ele>
        <time>2015-08-28T15:38:39Z</time>
      </trkpt>
      <trkpt lat="46.79648" lon="5.5545">
        <ele>281.27</ele>
        <time>2015-08-28T15:38:42Z</time>
      </trkpt>
      <trkpt lat="46.79673" lon="5.5544">
        <ele>279.13</ele>
        <time>2015-08-28T15:38:45Z</time>
      </trkpt>
      <trkpt lat="46.79691" lon="5.55437">
        <ele>277.23</ele>
        <time>2015-08-28T15:38:47Z</time>
      </trkpt>
      <trkpt lat="46.7971" lon="5.55436">
        <ele>276</ele>
        <time>2015-08-28T15:38:49Z</time>
      </trkpt>
      <trkpt lat="46.79736" lon="5.55436">
        <ele>273.22</ele>
        <time>2015-08-28T15:38:52Z</time>
      </trkpt>
      <trkpt lat="46.79762" lon="5.55432">
        <ele>270.75</ele>
        <time>2015-08-28T15:38:55Z</time>
      </trkpt>
      <trkpt lat="46.7978" lon="5.55425">
        <ele>269.13</ele>
        <time>2015-08-28T15:38:57Z</time>
      </trkpt>
      <trkpt lat="46.79797" lon="5.5542">
        <ele>267.23</ele>
        <time>2015-08-28T15:38:59Z</time>
      </trkpt>
      <trkpt lat="46.79815" lon="5.55412">
        <ele>266</ele>
        <time>2015-08-28T15:39:01Z</time>
      </trkpt>
      <trkpt lat="46.79831" lon="5.55398">
        <ele>264.94</ele>
        <time>2015-08-28T15:39:03Z</time>
      </trkpt>
      <trkpt lat="46.79846" lon="5.55381">
        <ele>263.68</ele>
        <time>2015-08-28T15:39:05Z</time>
      </trkpt>
      <trkpt lat="46.79861" lon="5.5536">
        <ele>262.11</ele>
        <time>2015-08-28T15:39:07Z</time>
      </trkpt>
      <trkpt lat="46.79876" lon="5.55339">
        <ele>260.97</ele>
        <time>2015-08-28T15:39:09Z</time>
      </trkpt>
      <trkpt lat="46.7989" lon="5.55317">
        <ele>259.94</ele>
        <time>2015-08-28T15:39:11Z</time>
      </trkpt>
      <trkpt lat="46.79902" lon="5.55294">
        <ele>258.93</ele>
        <time>2015-08-28T15:39:13Z</time>
      </trkpt>
      <trkpt lat="46.79908" lon="5.55267">
        <ele>258.92</ele>
        <time>2015-08-28T15:39:15Z</time>
      </trkpt>
      <trkpt lat="46.79908" lon="5.5524">
        <ele>259.67</ele>
        <time>2015-08-28T15:39:17Z</time>
      </trkpt>
      <trkpt lat="46.79906" lon="5.55202">
        <ele>259.31</ele>
        <time>2015-08-28T15:39:20Z</time>
      </trkpt>
      <trkpt lat="46.79904" lon="5.55164">
        <ele>259.26</ele>
        <time>2015-08-28T15:39:23Z</time>
      </trkpt>
      <trkpt lat="46.79902" lon="5.55128">
        <ele>258.76</ele>
        <time>2015-08-28T15:39:26Z</time>
      </trkpt>
      <trkpt lat="46.79908" lon="5.55091">
        <ele>257.07</ele>
        <time>2015-08-28T15:39:29Z</time>
      </trkpt>
      <trkpt lat="46.79921" lon="5.55071">
        <ele>255.71</ele>
        <time>2015-08-28T15:39:31Z</time>
      </trkpt>
      <trkpt lat="46.79939" lon="5.55057">
        <ele>254.12</ele>
        <time>2015-08-28T15:39:33Z</time>
      </trkpt>
      <trkpt lat="46.79959" lon="5.55047">
        <ele>252.72</ele>
        <time>2015-08-28T15:39:35Z</time>
      </trkpt>
      <trkpt lat="46.79979" lon="5.55035">
        <ele>251.12</ele>
        <time>2015-08-28T15:39:37Z</time>
      </trkpt>
      <trkpt lat="46.79995" lon="5.55014">
        <ele>249.22</ele>
        <time>2015-08-28T15:39:39Z</time>
      </trkpt>
      <trkpt lat="46.80006" lon="5.54989">
        <ele>248.5</ele>
        <time>2015-08-28T15:39:41Z</time>
      </trkpt>
      <trkpt lat="46.80013" lon="5.54961">
        <ele>247.57</ele>
        <time>2015-08-28T15:39:43Z</time>
      </trkpt>
      <trkpt lat="46.80017" lon="5.54931">
        <ele>246.83</ele>
        <time>2015-08-28T15:39:45Z</time>
      </trkpt>
      <trkpt lat="46.80017" lon="5.54904">
        <ele>246.4</ele>
        <time>2015-08-28T15:39:47Z</time>
      </trkpt>
      <trkpt lat="46.8001" lon="5.54878">
        <ele>246.29</ele>
        <time>2015-08-28T15:39:49Z</time>
      </trkpt>
      <trkpt lat="46.8" lon="5.54856">
        <ele>245.52</ele>
        <time>2015-08-28T15:39:51Z</time>
      </trkpt>
      <trkpt lat="46.79986" lon="5.54836">
        <ele>245.32</ele>
        <time>2015-08-28T15:39:53Z</time>
      </trkpt>
      <trkpt lat="46.79973" lon="5.54817">
        <ele>244.52</ele>
        <time>2015-08-28T15:39:55Z</time>
      </trkpt>
      <trkpt lat="46.7996" lon="5.54796">
        <ele>244.32</ele>
        <time>2015-08-28T15:39:57Z</time>
      </trkpt>
      <trkpt lat="46.79948" lon="5.54773">
        <ele>243.02</ele>
        <time>2015-08-28T15:39:59Z</time>
      </trkpt>
      <trkpt lat="46.79936" lon="5.54747">
        <ele>241.7</ele>
        <time>2015-08-28T15:40:01Z</time>
      </trkpt>
      <trkpt lat="46.79925" lon="5.54721">
        <ele>240.62</ele>
        <time>2015-08-28T15:40:03Z</time>
      </trkpt>
      <trkpt lat="46.79914" lon="5.54695">
        <ele>239.6</ele>
        <time>2015-08-28T15:40:05Z</time>
      </trkpt>
      <trkpt lat="46.79904" lon="5.54669">
        <ele>238.59</ele>
        <time>2015-08-28T15:40:07Z</time>
      </trkpt>
      <trkpt lat="46.79893" lon="5.54643">
        <ele>238.34</ele>
        <time>2015-08-28T15:40:09Z</time>
      </trkpt>
      <trkpt lat="46.79882" lon="5.54617">
        <ele>237.53</ele>
        <time>2015-08-28T15:40:11Z</time>
      </trkpt>
      <trkpt lat="46.79872" lon="5.5459">
        <ele>236.82</ele>
        <time>2015-08-28T15:40:13Z</time>
      </trkpt>
      <trkpt lat="46.79864" lon="5.54562">
        <ele>235.9</ele>
        <time>2015-08-28T15:40:15Z</time>
      </trkpt>
      <trkpt lat="46.79858" lon="5.54533">
        <ele>235.42</ele>
        <time>2015-08-28T15:40:17Z</time>
      </trkpt>
      <trkpt lat="46.79854" lon="5.54504">
        <ele>235.05</ele>
        <time>2015-08-28T15:40:19Z</time>
      </trkpt>
      <trkpt lat="46.7985" lon="5.54475">
        <ele>234.45</ele>
        <time>2015-08-28T15:40:21Z</time>
      </trkpt>
      <trkpt lat="46.79849" lon="5.54447">
        <ele>233.81</ele>
        <time>2015-08-28T15:40:23Z</time>
      </trkpt>
      <trkpt lat="46.79849" lon="5.5442">
        <ele>233.39</ele>
        <time>2015-08-28T15:40:25Z</time>
      </trkpt>
      <trkpt lat="46.7985" lon="5.54393">
        <ele>233.29</ele>
        <time>2015-08-28T15:40:27Z</time>
      </trkpt>
      <trkpt lat="46.79855" lon="5.54356">
        <ele>233.26</ele>
        <time>2015-08-28T15:40:30Z</time>
      </trkpt>
      <trkpt lat="46.79862" lon="5.54321">
        <ele>233.26</ele>
        <time>2015-08-28T15:40:33Z</time>
      </trkpt>
      <trkpt lat="46.7987" lon="5.54291">
        <ele>233.76</ele>
        <time>2015-08-28T15:40:36Z</time>
      </trkpt>
      <trkpt lat="46.79879" lon="5.54262">
        <ele>233.69</ele>
        <time>2015-08-28T15:40:39Z</time>
      </trkpt>
      <trkpt lat="46.79887" lon="5.54233">
        <ele>234.19</ele>
        <time>2015-08-28T15:40:42Z</time>
      </trkpt>
      <trkpt lat="46.79895" lon="5.54205">
        <ele>234.25</ele>
        <time>2015-08-28T15:40:45Z</time>
      </trkpt>
      <trkpt lat="46.79903" lon="5.54178">
        <ele>234.26</ele>
        <time>2015-08-28T15:40:48Z</time>
      </trkpt>
      <trkpt lat="46.79911" lon="5.5415">
        <ele>233.38</ele>
        <time>2015-08-28T15:40:51Z</time>
      </trkpt>
      <trkpt lat="46.79919" lon="5.54122">
        <ele>233.27</ele>
        <time>2015-08-28T15:40:54Z</time>
      </trkpt>
      <trkpt lat="46.79927" lon="5.54095">
        <ele>234.13</ele>
        <time>2015-08-28T15:40:57Z</time>
      </trkpt>
      <trkpt lat="46.79935" lon="5.54068">
        <ele>234.24</ele>
        <time>2015-08-28T15:41:00Z</time>
      </trkpt>
      <trkpt lat="46.79943" lon="5.54043">
        <ele>234.26</ele>
        <time>2015-08-28T15:41:03Z</time>
      </trkpt>
      <trkpt lat="46.79939" lon="5.54015">
        <ele>233.38</ele>
        <time>2015-08-28T15:41:06Z</time>
      </trkpt>
      <trkpt lat="46.79925" lon="5.53987">
        <ele>231.9</ele>
        <time>2015-08-28T15:41:09Z</time>
      </trkpt>
      <trkpt lat="46.79909" lon="5.53956">
        <ele>230.59</ele>
        <time>2015-08-28T15:41:12Z</time>
      </trkpt>
      <trkpt lat="46.79897" lon="5.53936">
        <ele>229.59</ele>
        <time>2015-08-28T15:41:14Z</time>
      </trkpt>
      <trkpt lat="46.79885" lon="5.53915">
        <ele>229.34</ele>
        <time>2015-08-28T15:41:16Z</time>
      </trkpt>
      <trkpt lat="46.79875" lon="5.53891">
        <ele>228.53</ele>
        <time>2015-08-28T15:41:18Z</time>
      </trkpt>
      <trkpt lat="46.79866" lon="5.53869">
        <ele>228.32</ele>
        <time>2015-08-28T15:41:20Z</time>
      </trkpt>
      <trkpt lat="46.79852" lon="5.53837">
        <ele>228.27</ele>
        <time>2015-08-28T15:41:23Z</time>
      </trkpt>
      <trkpt lat="46.79838" lon="5.53809">
        <ele>228.76</ele>
        <time>2015-08-28T15:41:26Z</time>
      </trkpt>
      <trkpt lat="46.79827" lon="5.53778">
        <ele>229.19</ele>
        <time>2015-08-28T15:41:29Z</time>
      </trkpt>
      <trkpt lat="46.79819" lon="5.53748">
        <ele>229.25</ele>
        <time>2015-08-28T15:41:32Z</time>
      </trkpt>
      <trkpt lat="46.79804" lon="5.53725">
        <ele>230.01</ele>
        <time>2015-08-28T15:41:35Z</time>
      </trkpt>
      <trkpt lat="46.79787" lon="5.53712">
        <ele>231.1</ele>
        <time>2015-08-28T15:41:38Z</time>
      </trkpt>
      <trkpt lat="46.79771" lon="5.537">
        <ele>231.74</ele>
        <time>2015-08-28T15:41:41Z</time>
      </trkpt>
      <trkpt lat="46.79763" lon="5.53669">
        <ele>231.85</ele>
        <time>2015-08-28T15:41:45Z</time>
      </trkpt>
      <trkpt lat="46.79771" lon="5.53637">
        <ele>232.23</ele>
        <time>2015-08-28T15:41:49Z</time>
      </trkpt>
      <trkpt lat="46.79775" lon="5.53603">
        <ele>232.26</ele>
        <time>2015-08-28T15:41:53Z</time>
      </trkpt>
      <trkpt lat="46.79765" lon="5.53578">
        <ele>233.01</ele>
        <time>2015-08-28T15:41:57Z</time>
      </trkpt>
      <trkpt lat="46.79747" lon="5.53566">
        <ele>234.68</ele>
        <time>2015-08-28T15:42:01Z</time>
      </trkpt>
      <trkpt lat="46.79729" lon="5.53554">
        <ele>235.22</ele>
        <time>2015-08-28T15:42:05Z</time>
      </trkpt>
      <trkpt lat="46.79708" lon="5.53541">
        <ele>234.75</ele>
        <time>2015-08-28T15:42:09Z</time>
      </trkpt>
      <trkpt lat="46.79692" lon="5.53526">
        <ele>233.57</ele>
        <time>2015-08-28T15:42:12Z</time>
      </trkpt>
      <trkpt lat="46.79678" lon="5.53504">
        <ele>232.8</ele>
        <time>2015-08-28T15:42:15Z</time>
      </trkpt>
      <trkpt lat="46.79662" lon="5.53485">
        <ele>232.32</ele>
        <time>2015-08-28T15:42:18Z</time>
      </trkpt>
      <trkpt lat="46.79646" lon="5.53471">
        <ele>231.77</ele>
        <time>2015-08-28T15:42:21Z</time>
      </trkpt>
      <trkpt lat="46.79628" lon="5.5346">
        <ele>231.07</ele>
        <time>2015-08-28T15:42:24Z</time>
      </trkpt>
      <trkpt lat="46.7961" lon="5.53448">
        <ele>231.23</ele>
        <time>2015-08-28T15:42:27Z</time>
      </trkpt>
      <trkpt lat="46.79594" lon="5.53437">
        <ele>231.25</ele>
        <time>2015-08-28T15:42:30Z</time>
      </trkpt>
      <trkpt lat="46.79577" lon="5.53424">
        <ele>231.26</ele>
        <time>2015-08-28T15:42:33Z</time>
      </trkpt>
      <trkpt lat="46.79562" lon="5.5341">
        <ele>231.76</ele>
        <time>2015-08-28T15:42:36Z</time>
      </trkpt>
      <trkpt lat="46.79543" lon="5.53393">
        <ele>232.73</ele>
        <time>2015-08-28T15:42:40Z</time>
      </trkpt>
      <trkpt lat="46.79526" lon="5.53377">
        <ele>233.97</ele>
        <time>2015-08-28T15:42:44Z</time>
      </trkpt>
      <trkpt lat="46.79509" lon="5.53363">
        <ele>235.11</ele>
        <time>2015-08-28T15:42:48Z</time>
      </trkpt>
      <trkpt lat="46.79492" lon="5.53349">
        <ele>236.19</ele>
        <time>2015-08-28T15:42:52Z</time>
      </trkpt>
      <trkpt lat="46.79475" lon="5.53335">
        <ele>237.13</ele>
        <time>2015-08-28T15:42:56Z</time>
      </trkpt>
      <trkpt lat="46.79458" lon="5.5332">
        <ele>237.69</ele>
        <time>2015-08-28T15:43:00Z</time>
      </trkpt>
      <trkpt lat="46.79441" lon="5.53305">
        <ele>238.16</ele>
        <time>2015-08-28T15:43:04Z</time>
      </trkpt>
      <trkpt lat="46.79423" lon="5.53295">
        <ele>238.75</ele>
        <time>2015-08-28T15:43:08Z</time>
      </trkpt>
      <trkpt lat="46.79404" lon="5.533">
        <ele>239.23</ele>
        <time>2015-08-28T15:43:12Z</time>
      </trkpt>
      <trkpt lat="46.79388" lon="5.53316">
        <ele>239.26</ele>
        <time>2015-08-28T15:43:16Z</time>
      </trkpt>
      <trkpt lat="46.79375" lon="5.53337">
        <ele>239.26</ele>
        <time>2015-08-28T15:43:20Z</time>
      </trkpt>
      <trkpt lat="46.79358" lon="5.53356">
        <ele>239.26</ele>
        <time>2015-08-28T15:43:24Z</time>
      </trkpt>
      <trkpt lat="46.79341" lon="5.53378">
        <ele>239.26</ele>
        <time>2015-08-28T15:43:28Z</time>
      </trkpt>
      <trkpt lat="46.79322" lon="5.53388">
        <ele>239.69</ele>
        <time>2015-08-28T15:43:33Z</time>
      </trkpt>
      <trkpt lat="46.79304" lon="5.53395">
        <ele>244.28</ele>
        <time>2015-08-28T15:43:43Z</time>
      </trkpt>
      <trkpt lat="46.79286" lon="5.53403">
        <ele>245.16</ele>
        <time>2015-08-28T15:43:48Z</time>
      </trkpt>
      <trkpt lat="46.79264" lon="5.53401">
        <ele>245.25</ele>
        <time>2015-08-28T15:43:53Z</time>
      </trkpt>
      <trkpt lat="46.79247" lon="5.53415">
        <ele>246.26</ele>
        <time>2015-08-28T15:43:57Z</time>
      </trkpt>
      <trkpt lat="46.79229" lon="5.53424">
        <ele>248.88</ele>
        <time>2015-08-28T15:44:01Z</time>
      </trkpt>
      <trkpt lat="46.79213" lon="5.53412">
        <ele>250.67</ele>
        <time>2015-08-28T15:44:05Z</time>
      </trkpt>
      <trkpt lat="46.79202" lon="5.5339">
        <ele>255.84</ele>
        <time>2015-08-28T15:44:14Z</time>
      </trkpt>
      <trkpt lat="46.79184" lon="5.534">
        <ele>255.86</ele>
        <time>2015-08-28T15:44:20Z</time>
      </trkpt>
      <trkpt lat="46.7917" lon="5.53417">
        <ele>255.28</ele>
        <time>2015-08-28T15:44:25Z</time>
      </trkpt>
      <trkpt lat="46.79163" lon="5.53446">
        <ele>253.57</ele>
        <time>2015-08-28T15:44:30Z</time>
      </trkpt>
      <trkpt lat="46.79157" lon="5.53472">
        <ele>254.09</ele>
        <time>2015-08-28T15:44:34Z</time>
      </trkpt>
      <trkpt lat="46.79144" lon="5.535">
        <ele>255.06</ele>
        <time>2015-08-28T15:44:39Z</time>
      </trkpt>
      <trkpt lat="46.79127" lon="5.53512">
        <ele>255.74</ele>
        <time>2015-08-28T15:44:48Z</time>
      </trkpt>
      <trkpt lat="46.79108" lon="5.53514">
        <ele>258.81</ele>
        <time>2015-08-28T15:44:55Z</time>
      </trkpt>
      <trkpt lat="46.79088" lon="5.53519">
        <ele>259.28</ele>
        <time>2015-08-28T15:45:01Z</time>
      </trkpt>
      <trkpt lat="46.79068" lon="5.53508">
        <ele>261.69</ele>
        <time>2015-08-28T15:45:08Z</time>
      </trkpt>
      <trkpt lat="46.7906" lon="5.53481">
        <ele>264.47</ele>
        <time>2015-08-28T15:45:15Z</time>
      </trkpt>
      <trkpt lat="46.79053" lon="5.5345">
        <ele>266.01</ele>
        <time>2015-08-28T15:45:20Z</time>
      </trkpt>
      <trkpt lat="46.79048" lon="5.53418">
        <ele>265.43</ele>
        <time>2015-08-28T15:45:24Z</time>
      </trkpt>
      <trkpt lat="46.79043" lon="5.53388">
        <ele>260.53</ele>
        <time>2015-08-28T15:45:27Z</time>
      </trkpt>
      <trkpt lat="46.7904" lon="5.53361">
        <ele>259.42</ele>
        <time>2015-08-28T15:45:30Z</time>
      </trkpt>
      <trkpt lat="46.7904" lon="5.53328">
        <ele>257.78</ele>
        <time>2015-08-28T15:45:33Z</time>
      </trkpt>
      <trkpt lat="46.79034" lon="5.53303">
        <ele>256.82</ele>
        <time>2015-08-28T15:45:36Z</time>
      </trkpt>
      <trkpt lat="46.79029" lon="5.53272">
        <ele>253.95</ele>
        <time>2015-08-28T15:45:39Z</time>
      </trkpt>
      <trkpt lat="46.79025" lon="5.53241">
        <ele>255.09</ele>
        <time>2015-08-28T15:45:42Z</time>
      </trkpt>
      <trkpt lat="46.79017" lon="5.53214">
        <ele>256.49</ele>
        <time>2015-08-28T15:45:45Z</time>
      </trkpt>
      <trkpt lat="46.79018" lon="5.53184">
        <ele>256.41</ele>
        <time>2015-08-28T15:45:48Z</time>
      </trkpt>
      <trkpt lat="46.79014" lon="5.5315">
        <ele>256.08</ele>
        <time>2015-08-28T15:45:52Z</time>
      </trkpt>
      <trkpt lat="46.79008" lon="5.53125">
        <ele>257.68</ele>
        <time>2015-08-28T15:45:56Z</time>
      </trkpt>
      <trkpt lat="46.79006" lon="5.53098">
        <ele>258.22</ele>
        <time>2015-08-28T15:46:00Z</time>
      </trkpt>
      <trkpt lat="46.79002" lon="5.53071">
        <ele>259.13</ele>
        <time>2015-08-28T15:46:04Z</time>
      </trkpt>
      <trkpt lat="46.78996" lon="5.53042">
        <ele>263.68</ele>
        <time>2015-08-28T15:48:07Z</time>
      </trkpt>
      <trkpt lat="46.78998" lon="5.53015">
        <ele>263.27</ele>
        <time>2015-08-28T15:48:12Z</time>
      </trkpt>
      <trkpt lat="46.78999" lon="5.52985">
        <ele>259.51</ele>
        <time>2015-08-28T15:48:16Z</time>
      </trkpt>
      <trkpt lat="46.78982" lon="5.52963">
        <ele>256.02</ele>
        <time>2015-08-28T15:48:20Z</time>
      </trkpt>
      <trkpt lat="46.7896" lon="5.52949">
        <ele>253.18</ele>
        <time>2015-08-28T15:48:24Z</time>
      </trkpt>
      <trkpt lat="46.78941" lon="5.52937">
        <ele>251.12</ele>
        <time>2015-08-28T15:48:27Z</time>
      </trkpt>
      <trkpt lat="46.78918" lon="5.52932">
        <ele>249.49</ele>
        <time>2015-08-28T15:48:30Z</time>
      </trkpt>
      <trkpt lat="46.78896" lon="5.52927">
        <ele>248.54</ele>
        <time>2015-08-28T15:48:33Z</time>
      </trkpt>
      <trkpt lat="46.78874" lon="5.52927">
        <ele>247.42</ele>
        <time>2015-08-28T15:48:36Z</time>
      </trkpt>
      <trkpt lat="46.7885" lon="5.52927">
        <ele>245.53</ele>
        <time>2015-08-28T15:48:39Z</time>
      </trkpt>
      <trkpt lat="46.78824" lon="5.52929">
        <ele>243.67</ele>
        <time>2015-08-28T15:48:42Z</time>
      </trkpt>
      <trkpt lat="46.78806" lon="5.52928">
        <ele>242.11</ele>
        <time>2015-08-28T15:48:44Z</time>
      </trkpt>
      <trkpt lat="46.78788" lon="5.52922">
        <ele>240.72</ele>
        <time>2015-08-28T15:48:46Z</time>
      </trkpt>
      <trkpt lat="46.78766" lon="5.52912">
        <ele>241.06</ele>
        <time>2015-08-28T15:48:49Z</time>
      </trkpt>
      <trkpt lat="46.78747" lon="5.52904">
        <ele>242.81</ele>
        <time>2015-08-28T15:48:53Z</time>
      </trkpt>
      <trkpt lat="46.78733" lon="5.52884">
        <ele>243.8</ele>
        <time>2015-08-28T15:48:59Z</time>
      </trkpt>
      <trkpt lat="46.78746" lon="5.52849">
        <ele>243.54</ele>
        <time>2015-08-28T15:49:04Z</time>
      </trkpt>
      <trkpt lat="46.78759" lon="5.52821">
        <ele>241.4</ele>
        <time>2015-08-28T15:49:08Z</time>
      </trkpt>
      <trkpt lat="46.78768" lon="5.52793">
        <ele>237.9</ele>
        <time>2015-08-28T15:49:11Z</time>
      </trkpt>
      <trkpt lat="46.78781" lon="5.5277">
        <ele>237.34</ele>
        <time>2015-08-28T15:49:14Z</time>
      </trkpt>
      <trkpt lat="46.78801" lon="5.52759">
        <ele>237.77</ele>
        <time>2015-08-28T15:49:17Z</time>
      </trkpt>
      <trkpt lat="46.78823" lon="5.52762">
        <ele>237.45</ele>
        <time>2015-08-28T15:49:20Z</time>
      </trkpt>
      <trkpt lat="46.78842" lon="5.52769">
        <ele>234.03</ele>
        <time>2015-08-28T15:49:23Z</time>
      </trkpt>
      <trkpt lat="46.7886" lon="5.52775">
        <ele>231.1</ele>
        <time>2015-08-28T15:49:26Z</time>
      </trkpt>
      <trkpt lat="46.78883" lon="5.52782">
        <ele>231.37</ele>
        <time>2015-08-28T15:49:30Z</time>
      </trkpt>
      <trkpt lat="46.78906" lon="5.52789">
        <ele>231.26</ele>
        <time>2015-08-28T15:49:34Z</time>
      </trkpt>
      <trkpt lat="46.78929" lon="5.52797">
        <ele>232.13</ele>
        <time>2015-08-28T15:49:38Z</time>
      </trkpt>
      <trkpt lat="46.78952" lon="5.52795">
        <ele>232.25</ele>
        <time>2015-08-28T15:49:42Z</time>
      </trkpt>
      <trkpt lat="46.78972" lon="5.5279">
        <ele>233.63</ele>
        <time>2015-08-28T15:49:46Z</time>
      </trkpt>
      <trkpt lat="46.78988" lon="5.52775">
        <ele>235.84</ele>
        <time>2015-08-28T15:49:50Z</time>
      </trkpt>
      <trkpt lat="46.79001" lon="5.52756">
        <ele>237.67</ele>
        <time>2015-08-28T15:49:54Z</time>
      </trkpt>
      <trkpt lat="46.79015" lon="5.52738">
        <ele>238.72</ele>
        <time>2015-08-28T15:49:58Z</time>
      </trkpt>
      <trkpt lat="46.79028" lon="5.52718">
        <ele>239.97</ele>
        <time>2015-08-28T15:50:02Z</time>
      </trkpt>
      <trkpt lat="46.79044" lon="5.52696">
        <ele>242.09</ele>
        <time>2015-08-28T15:50:07Z</time>
      </trkpt>
      <trkpt lat="46.7906" lon="5.52675">
        <ele>243.19</ele>
        <time>2015-08-28T15:50:12Z</time>
      </trkpt>
      <trkpt lat="46.79076" lon="5.52654">
        <ele>244.19</ele>
        <time>2015-08-28T15:50:17Z</time>
      </trkpt>
      <trkpt lat="46.79092" lon="5.52633">
        <ele>245.19</ele>
        <time>2015-08-28T15:50:22Z</time>
      </trkpt>
      <trkpt lat="46.79106" lon="5.52612">
        <ele>246.13</ele>
        <time>2015-08-28T15:50:27Z</time>
      </trkpt>
      <trkpt lat="46.79122" lon="5.52593">
        <ele>246.25</ele>
        <time>2015-08-28T15:50:32Z</time>
      </trkpt>
      <trkpt lat="46.79137" lon="5.52572">
        <ele>245.51</ele>
        <time>2015-08-28T15:50:38Z</time>
      </trkpt>
      <trkpt lat="46.79126" lon="5.52545">
        <ele>247.13</ele>
        <time>2015-08-28T15:50:45Z</time>
      </trkpt>
      <trkpt lat="46.79115" lon="5.52523">
        <ele>248.87</ele>
        <time>2015-08-28T15:50:49Z</time>
      </trkpt>
      <trkpt lat="46.79102" lon="5.525">
        <ele>250.11</ele>
        <time>2015-08-28T15:50:53Z</time>
      </trkpt>
      <trkpt lat="46.79092" lon="5.52475">
        <ele>251.19</ele>
        <time>2015-08-28T15:50:57Z</time>
      </trkpt>
      <trkpt lat="46.79081" lon="5.52451">
        <ele>252.75</ele>
        <time>2015-08-28T15:51:01Z</time>
      </trkpt>
      <trkpt lat="46.79071" lon="5.52421">
        <ele>253.48</ele>
        <time>2015-08-28T15:51:05Z</time>
      </trkpt>
      <trkpt lat="46.79057" lon="5.52394">
        <ele>254.96</ele>
        <time>2015-08-28T15:51:09Z</time>
      </trkpt>
      <trkpt lat="46.79046" lon="5.5237">
        <ele>254.97</ele>
        <time>2015-08-28T15:51:12Z</time>
      </trkpt>
      <trkpt lat="46.79033" lon="5.52345">
        <ele>255.22</ele>
        <time>2015-08-28T15:51:15Z</time>
      </trkpt>
      <trkpt lat="46.79022" lon="5.52319">
        <ele>254.75</ele>
        <time>2015-08-28T15:51:18Z</time>
      </trkpt>
      <trkpt lat="46.79009" lon="5.52294">
        <ele>251.44</ele>
        <time>2015-08-28T15:51:21Z</time>
      </trkpt>
      <trkpt lat="46.78996" lon="5.52269">
        <ele>251.53</ele>
        <time>2015-08-28T15:51:24Z</time>
      </trkpt>
      <trkpt lat="46.78984" lon="5.52241">
        <ele>249.92</ele>
        <time>2015-08-28T15:51:27Z</time>
      </trkpt>
      <trkpt lat="46.7897" lon="5.52211">
        <ele>248.09</ele>
        <time>2015-08-28T15:51:30Z</time>
      </trkpt>
      <trkpt lat="46.78955" lon="5.52183">
        <ele>246.61</ele>
        <time>2015-08-28T15:51:33Z</time>
      </trkpt>
      <trkpt lat="46.78945" lon="5.52159">
        <ele>245.35</ele>
        <time>2015-08-28T15:51:35Z</time>
      </trkpt>
      <trkpt lat="46.78933" lon="5.52138">
        <ele>244.28</ele>
        <time>2015-08-28T15:51:37Z</time>
      </trkpt>
      <trkpt lat="46.78921" lon="5.52117">
        <ele>243.51</ele>
        <time>2015-08-28T15:51:39Z</time>
      </trkpt>
      <trkpt lat="46.78912" lon="5.52091">
        <ele>242.07</ele>
        <time>2015-08-28T15:51:41Z</time>
      </trkpt>
      <trkpt lat="46.78911" lon="5.52064">
        <ele>238.21</ele>
        <time>2015-08-28T15:51:43Z</time>
      </trkpt>
      <trkpt lat="46.78915" lon="5.52038">
        <ele>236.25</ele>
        <time>2015-08-28T15:51:45Z</time>
      </trkpt>
      <trkpt lat="46.78913" lon="5.52007">
        <ele>233.57</ele>
        <time>2015-08-28T15:51:49Z</time>
      </trkpt>
      <trkpt lat="46.78908" lon="5.51981">
        <ele>231.42</ele>
        <time>2015-08-28T15:51:52Z</time>
      </trkpt>
      <trkpt lat="46.78898" lon="5.51957">
        <ele>229.28</ele>
        <time>2015-08-28T15:51:55Z</time>
      </trkpt>
      <trkpt lat="46.78892" lon="5.51932">
        <ele>229.26</ele>
        <time>2015-08-28T15:51:58Z</time>
      </trkpt>
      <trkpt lat="46.78884" lon="5.519">
        <ele>228.32</ele>
        <time>2015-08-28T15:52:02Z</time>
      </trkpt>
      <trkpt lat="46.78875" lon="5.51873">
        <ele>228.26</ele>
        <time>2015-08-28T15:52:06Z</time>
      </trkpt>
      <trkpt lat="46.78867" lon="5.51843">
        <ele>230.98</ele>
        <time>2015-08-28T15:52:11Z</time>
      </trkpt>
      <trkpt lat="46.7886" lon="5.51814">
        <ele>229.99</ele>
        <time>2015-08-28T15:52:15Z</time>
      </trkpt>
      <trkpt lat="46.7885" lon="5.51787">
        <ele>229.3</ele>
        <time>2015-08-28T15:52:19Z</time>
      </trkpt>
      <trkpt lat="46.78842" lon="5.51759">
        <ele>229.76</ele>
        <time>2015-08-28T15:52:23Z</time>
      </trkpt>
      <trkpt lat="46.78856" lon="5.51737">
        <ele>227.67</ele>
        <time>2015-08-28T15:52:30Z</time>
      </trkpt>
      <trkpt lat="46.78875" lon="5.51742">
        <ele>228.72</ele>
        <time>2015-08-28T15:52:34Z</time>
      </trkpt>
      <trkpt lat="46.78897" lon="5.51743">
        <ele>230.41</ele>
        <time>2015-08-28T15:52:38Z</time>
      </trkpt>
      <trkpt lat="46.78917" lon="5.51738">
        <ele>232.14</ele>
        <time>2015-08-28T15:52:42Z</time>
      </trkpt>
      <trkpt lat="46.78934" lon="5.51742">
        <ele>232.24</ele>
        <time>2015-08-28T15:52:45Z</time>
      </trkpt>
      <trkpt lat="46.78954" lon="5.51735">
        <ele>231.51</ele>
        <time>2015-08-28T15:52:49Z</time>
      </trkpt>
      <trkpt lat="46.78967" lon="5.51714">
        <ele>230.41</ele>
        <time>2015-08-28T15:52:58Z</time>
      </trkpt>
      <trkpt lat="46.78978" lon="5.51689">
        <ele>229.27</ele>
        <time>2015-08-28T15:53:05Z</time>
      </trkpt>
      <trkpt lat="46.78986" lon="5.51664">
        <ele>228.76</ele>
        <time>2015-08-28T15:53:11Z</time>
      </trkpt>
      <trkpt lat="46.78997" lon="5.51637">
        <ele>228.36</ele>
        <time>2015-08-28T15:53:17Z</time>
      </trkpt>
      <trkpt lat="46.79004" lon="5.51611">
        <ele>229.01</ele>
        <time>2015-08-28T15:53:23Z</time>
      </trkpt>
      <trkpt lat="46.7901" lon="5.51581">
        <ele>230.36</ele>
        <time>2015-08-28T15:53:30Z</time>
      </trkpt>
      <trkpt lat="46.79015" lon="5.51554">
        <ele>231.64</ele>
        <time>2015-08-28T15:53:35Z</time>
      </trkpt>
      <trkpt lat="46.79023" lon="5.51527">
        <ele>233.05</ele>
        <time>2015-08-28T15:53:40Z</time>
      </trkpt>
      <trkpt lat="46.79031" lon="5.515">
        <ele>233.31</ele>
        <time>2015-08-28T15:53:45Z</time>
      </trkpt>
      <trkpt lat="46.79039" lon="5.51473">
        <ele>230.07</ele>
        <time>2015-08-28T15:53:49Z</time>
      </trkpt>
      <trkpt lat="46.7905" lon="5.51441">
        <ele>228.62</ele>
        <time>2015-08-28T15:53:53Z</time>
      </trkpt>
      <trkpt lat="46.79058" lon="5.51413">
        <ele>227.05</ele>
        <time>2015-08-28T15:53:56Z</time>
      </trkpt>
      <trkpt lat="46.79069" lon="5.51392">
        <ele>224.91</ele>
        <time>2015-08-28T15:54:01Z</time>
      </trkpt>
      <trkpt lat="46.79089" lon="5.51384">
        <ele>225.04</ele>
        <time>2015-08-28T15:54:09Z</time>
      </trkpt>
      <trkpt lat="46.79107" lon="5.51393">
        <ele>224.5</ele>
        <time>2015-08-28T15:54:15Z</time>
      </trkpt>
      <trkpt lat="46.79127" lon="5.51405">
        <ele>224.45</ele>
        <time>2015-08-28T15:54:21Z</time>
      </trkpt>
      <trkpt lat="46.79147" lon="5.51416">
        <ele>225.2</ele>
        <time>2015-08-28T15:54:27Z</time>
      </trkpt>
      <trkpt lat="46.79166" lon="5.51424">
        <ele>225.26</ele>
        <time>2015-08-28T15:54:33Z</time>
      </trkpt>
      <trkpt lat="46.79184" lon="5.5142">
        <ele>224.88</ele>
        <time>2015-08-28T15:54:38Z</time>
      </trkpt>
      <trkpt lat="46.79195" lon="5.51399">
        <ele>226</ele>
        <time>2015-08-28T15:54:43Z</time>
      </trkpt>
      <trkpt lat="46.79202" lon="5.51371">
        <ele>228.06</ele>
        <time>2015-08-28T15:54:48Z</time>
      </trkpt>
      <trkpt lat="46.7921" lon="5.51343">
        <ele>228.16</ele>
        <time>2015-08-28T15:54:53Z</time>
      </trkpt>
      <trkpt lat="46.79217" lon="5.51313">
        <ele>231.04</ele>
        <time>2015-08-28T15:54:58Z</time>
      </trkpt>
      <trkpt lat="46.79221" lon="5.5128">
        <ele>230.75</ele>
        <time>2015-08-28T15:55:03Z</time>
      </trkpt>
      <trkpt lat="46.7923" lon="5.51251">
        <ele>229.54</ele>
        <time>2015-08-28T15:55:07Z</time>
      </trkpt>
      <trkpt lat="46.7925" lon="5.51258">
        <ele>225.7</ele>
        <time>2015-08-28T15:55:13Z</time>
      </trkpt>
      <trkpt lat="46.79269" lon="5.51253">
        <ele>223.85</ele>
        <time>2015-08-28T15:55:17Z</time>
      </trkpt>
      <trkpt lat="46.7929" lon="5.51244">
        <ele>223.65</ele>
        <time>2015-08-28T15:55:22Z</time>
      </trkpt>
      <trkpt lat="46.79307" lon="5.5125">
        <ele>225.18</ele>
        <time>2015-08-28T15:55:27Z</time>
      </trkpt>
      <trkpt lat="46.79323" lon="5.51264">
        <ele>226.24</ele>
        <time>2015-08-28T15:55:33Z</time>
      </trkpt>
      <trkpt lat="46.79339" lon="5.5128">
        <ele>224.88</ele>
        <time>2015-08-28T15:56:46Z</time>
      </trkpt>
      <trkpt lat="46.7935" lon="5.51302">
        <ele>224.26</ele>
        <time>2015-08-28T15:56:57Z</time>
      </trkpt>
      <trkpt lat="46.79337" lon="5.51278">
        <ele>225.32</ele>
        <time>2015-08-28T15:57:18Z</time>
      </trkpt>
      <trkpt lat="46.79353" lon="5.51304">
        <ele>223.76</ele>
        <time>2015-08-28T15:57:32Z</time>
      </trkpt>
      <trkpt lat="46.79371" lon="5.51318">
        <ele>224.07</ele>
        <time>2015-08-28T15:57:35Z</time>
      </trkpt>
      <trkpt lat="46.79382" lon="5.51294">
        <ele>227</ele>
        <time>2015-08-28T15:57:40Z</time>
      </trkpt>
      <trkpt lat="46.79392" lon="5.51264">
        <ele>229.16</ele>
        <time>2015-08-28T15:57:45Z</time>
      </trkpt>
      <trkpt lat="46.79416" lon="5.51258">
        <ele>229.5</ele>
        <time>2015-08-28T15:57:49Z</time>
      </trkpt>
      <trkpt lat="46.79437" lon="5.51267">
        <ele>227.83</ele>
        <time>2015-08-28T15:57:53Z</time>
      </trkpt>
      <trkpt lat="46.79458" lon="5.51273">
        <ele>227.29</ele>
        <time>2015-08-28T15:57:57Z</time>
      </trkpt>
      <trkpt lat="46.79476" lon="5.51277">
        <ele>227.76</ele>
        <time>2015-08-28T15:58:00Z</time>
      </trkpt>
      <trkpt lat="46.79492" lon="5.51299">
        <ele>229.23</ele>
        <time>2015-08-28T15:58:04Z</time>
      </trkpt>
      <trkpt lat="46.79504" lon="5.51327">
        <ele>231.76</ele>
        <time>2015-08-28T15:58:08Z</time>
      </trkpt>
      <trkpt lat="46.79508" lon="5.51354">
        <ele>231.32</ele>
        <time>2015-08-28T15:58:11Z</time>
      </trkpt>
      <trkpt lat="46.79509" lon="5.51384">
        <ele>232.2</ele>
        <time>2015-08-28T15:58:15Z</time>
      </trkpt>
      <trkpt lat="46.79511" lon="5.51411">
        <ele>235.19</ele>
        <time>2015-08-28T15:58:19Z</time>
      </trkpt>
      <trkpt lat="46.79511" lon="5.51443">
        <ele>235.69</ele>
        <time>2015-08-28T15:58:23Z</time>
      </trkpt>
      <trkpt lat="46.79515" lon="5.51475">
        <ele>233.66</ele>
        <time>2015-08-28T15:58:27Z</time>
      </trkpt>
      <trkpt lat="46.79515" lon="5.51507">
        <ele>233.09</ele>
        <time>2015-08-28T15:58:31Z</time>
      </trkpt>
      <trkpt lat="46.79526" lon="5.51531">
        <ele>233.99</ele>
        <time>2015-08-28T15:58:34Z</time>
      </trkpt>
      <trkpt lat="46.79537" lon="5.51562">
        <ele>233.49</ele>
        <time>2015-08-28T15:58:38Z</time>
      </trkpt>
      <trkpt lat="46.79546" lon="5.51587">
        <ele>233.91</ele>
        <time>2015-08-28T15:58:41Z</time>
      </trkpt>
      <trkpt lat="46.79546" lon="5.51615">
        <ele>234.86</ele>
        <time>2015-08-28T15:58:45Z</time>
      </trkpt>
      <trkpt lat="46.79558" lon="5.51641">
        <ele>235.86</ele>
        <time>2015-08-28T15:58:49Z</time>
      </trkpt>
      <trkpt lat="46.79572" lon="5.51659">
        <ele>236.23</ele>
        <time>2015-08-28T15:58:53Z</time>
      </trkpt>
      <trkpt lat="46.79588" lon="5.51673">
        <ele>236.25</ele>
        <time>2015-08-28T15:58:56Z</time>
      </trkpt>
      <trkpt lat="46.79608" lon="5.51688">
        <ele>237.88</ele>
        <time>2015-08-28T15:59:01Z</time>
      </trkpt>
      <trkpt lat="46.79626" lon="5.51701">
        <ele>237.71</ele>
        <time>2015-08-28T15:59:04Z</time>
      </trkpt>
      <trkpt lat="46.79644" lon="5.51707">
        <ele>235.56</ele>
        <time>2015-08-28T15:59:07Z</time>
      </trkpt>
      <trkpt lat="46.7966" lon="5.51718">
        <ele>234.3</ele>
        <time>2015-08-28T15:59:10Z</time>
      </trkpt>
      <trkpt lat="46.79678" lon="5.51735">
        <ele>231.26</ele>
        <time>2015-08-28T15:59:13Z</time>
      </trkpt>
      <trkpt lat="46.79682" lon="5.51761">
        <ele>231.13</ele>
        <time>2015-08-28T15:59:16Z</time>
      </trkpt>
      <trkpt lat="46.79691" lon="5.51785">
        <ele>230.12</ele>
        <time>2015-08-28T15:59:20Z</time>
      </trkpt>
      <trkpt lat="46.79708" lon="5.51773">
        <ele>227.47</ele>
        <time>2015-08-28T15:59:26Z</time>
      </trkpt>
      <trkpt lat="46.79723" lon="5.51759">
        <ele>226.77</ele>
        <time>2015-08-28T15:59:30Z</time>
      </trkpt>
      <trkpt lat="46.79739" lon="5.51746">
        <ele>224.48</ele>
        <time>2015-08-28T15:59:34Z</time>
      </trkpt>
      <trkpt lat="46.79754" lon="5.51731">
        <ele>223.4</ele>
        <time>2015-08-28T15:59:38Z</time>
      </trkpt>
      <trkpt lat="46.79773" lon="5.51715">
        <ele>222.32</ele>
        <time>2015-08-28T15:59:43Z</time>
      </trkpt>
      <trkpt lat="46.79791" lon="5.517">
        <ele>221.39</ele>
        <time>2015-08-28T15:59:47Z</time>
      </trkpt>
      <trkpt lat="46.79809" lon="5.51682">
        <ele>221.77</ele>
        <time>2015-08-28T15:59:51Z</time>
      </trkpt>
      <trkpt lat="46.79826" lon="5.51662">
        <ele>221.29</ele>
        <time>2015-08-28T15:59:55Z</time>
      </trkpt>
      <trkpt lat="46.79844" lon="5.51643">
        <ele>220.98</ele>
        <time>2015-08-28T16:00:00Z</time>
      </trkpt>
      <trkpt lat="46.7986" lon="5.51628">
        <ele>222.12</ele>
        <time>2015-08-28T16:00:05Z</time>
      </trkpt>
      <trkpt lat="46.79877" lon="5.51614">
        <ele>223.86</ele>
        <time>2015-08-28T16:00:11Z</time>
      </trkpt>
      <trkpt lat="46.79896" lon="5.51629">
        <ele>223.37</ele>
        <time>2015-08-28T16:00:16Z</time>
      </trkpt>
      <trkpt lat="46.79914" lon="5.51644">
        <ele>224.2</ele>
        <time>2015-08-28T16:00:20Z</time>
      </trkpt>
      <trkpt lat="46.79934" lon="5.51661">
        <ele>223.32</ele>
        <time>2015-08-28T16:00:24Z</time>
      </trkpt>
      <trkpt lat="46.79954" lon="5.5168">
        <ele>223.26</ele>
        <time>2015-08-28T16:00:28Z</time>
      </trkpt>
      <trkpt lat="46.79969" lon="5.51693">
        <ele>223.26</ele>
        <time>2015-08-28T16:00:31Z</time>
      </trkpt>
      <trkpt lat="46.79985" lon="5.51707">
        <ele>222.51</ele>
        <time>2015-08-28T16:00:34Z</time>
      </trkpt>
      <trkpt lat="46.80001" lon="5.51721">
        <ele>222.29</ele>
        <time>2015-08-28T16:00:37Z</time>
      </trkpt>
      <trkpt lat="46.80018" lon="5.51735">
        <ele>221.39</ele>
        <time>2015-08-28T16:00:40Z</time>
      </trkpt>
      <trkpt lat="46.80035" lon="5.5175">
        <ele>220.52</ele>
        <time>2015-08-28T16:00:43Z</time>
      </trkpt>
      <trkpt lat="46.80052" lon="5.51765">
        <ele>220.79</ele>
        <time>2015-08-28T16:00:46Z</time>
      </trkpt>
      <trkpt lat="46.80068" lon="5.51777">
        <ele>222.45</ele>
        <time>2015-08-28T16:00:49Z</time>
      </trkpt>
      <trkpt lat="46.80086" lon="5.51793">
        <ele>223.16</ele>
        <time>2015-08-28T16:00:52Z</time>
      </trkpt>
      <trkpt lat="46.80103" lon="5.51808">
        <ele>223.24</ele>
        <time>2015-08-28T16:00:55Z</time>
      </trkpt>
      <trkpt lat="46.8012" lon="5.51824">
        <ele>223.26</ele>
        <time>2015-08-28T16:00:58Z</time>
      </trkpt>
      <trkpt lat="46.80139" lon="5.5184">
        <ele>223.01</ele>
        <time>2015-08-28T16:01:01Z</time>
      </trkpt>
      <trkpt lat="46.80158" lon="5.51856">
        <ele>222.48</ele>
        <time>2015-08-28T16:01:04Z</time>
      </trkpt>
      <trkpt lat="46.80177" lon="5.51874">
        <ele>223.03</ele>
        <time>2015-08-28T16:01:07Z</time>
      </trkpt>
      <trkpt lat="46.80198" lon="5.51892">
        <ele>222.73</ele>
        <time>2015-08-28T16:01:10Z</time>
      </trkpt>
      <trkpt lat="46.8022" lon="5.51912">
        <ele>222.32</ele>
        <time>2015-08-28T16:01:13Z</time>
      </trkpt>
      <trkpt lat="46.80243" lon="5.51932">
        <ele>220.64</ele>
        <time>2015-08-28T16:01:16Z</time>
      </trkpt>
      <trkpt lat="46.80265" lon="5.51952">
        <ele>219.43</ele>
        <time>2015-08-28T16:01:19Z</time>
      </trkpt>
      <trkpt lat="46.80288" lon="5.51973">
        <ele>218.4</ele>
        <time>2015-08-28T16:01:22Z</time>
      </trkpt>
      <trkpt lat="46.80304" lon="5.51988">
        <ele>218.29</ele>
        <time>2015-08-28T16:01:24Z</time>
      </trkpt>
      <trkpt lat="46.8032" lon="5.52002">
        <ele>217.77</ele>
        <time>2015-08-28T16:01:26Z</time>
      </trkpt>
      <trkpt lat="46.80336" lon="5.52016">
        <ele>217.38</ele>
        <time>2015-08-28T16:01:28Z</time>
      </trkpt>
      <trkpt lat="46.80351" lon="5.5203">
        <ele>217.29</ele>
        <time>2015-08-28T16:01:30Z</time>
      </trkpt>
      <trkpt lat="46.80374" lon="5.52049">
        <ele>217.26</ele>
        <time>2015-08-28T16:01:33Z</time>
      </trkpt>
      <trkpt lat="46.80396" lon="5.52068">
        <ele>218.01</ele>
        <time>2015-08-28T16:01:36Z</time>
      </trkpt>
      <trkpt lat="46.80416" lon="5.52086">
        <ele>218.23</ele>
        <time>2015-08-28T16:01:39Z</time>
      </trkpt>
      <trkpt lat="46.80435" lon="5.52103">
        <ele>219.13</ele>
        <time>2015-08-28T16:01:42Z</time>
      </trkpt>
      <trkpt lat="46.80454" lon="5.5212">
        <ele>219.24</ele>
        <time>2015-08-28T16:01:45Z</time>
      </trkpt>
      <trkpt lat="46.80472" lon="5.52137">
        <ele>219.75</ele>
        <time>2015-08-28T16:01:48Z</time>
      </trkpt>
      <trkpt lat="46.80491" lon="5.52154">
        <ele>220.19</ele>
        <time>2015-08-28T16:01:51Z</time>
      </trkpt>
      <trkpt lat="46.80509" lon="5.5217">
        <ele>220.25</ele>
        <time>2015-08-28T16:01:54Z</time>
      </trkpt>
      <trkpt lat="46.80529" lon="5.52187">
        <ele>220.26</ele>
        <time>2015-08-28T16:01:57Z</time>
      </trkpt>
      <trkpt lat="46.80548" lon="5.52204">
        <ele>220.26</ele>
        <time>2015-08-28T16:02:00Z</time>
      </trkpt>
      <trkpt lat="46.80567" lon="5.52222">
        <ele>220.26</ele>
        <time>2015-08-28T16:02:03Z</time>
      </trkpt>
      <trkpt lat="46.80587" lon="5.52239">
        <ele>220.26</ele>
        <time>2015-08-28T16:02:06Z</time>
      </trkpt>
      <trkpt lat="46.80607" lon="5.52256">
        <ele>220.26</ele>
        <time>2015-08-28T16:02:09Z</time>
      </trkpt>
      <trkpt lat="46.80627" lon="5.52273">
        <ele>220.76</ele>
        <time>2015-08-28T16:02:12Z</time>
      </trkpt>
      <trkpt lat="46.80646" lon="5.52289">
        <ele>221.19</ele>
        <time>2015-08-28T16:02:15Z</time>
      </trkpt>
      <trkpt lat="46.80665" lon="5.52303">
        <ele>221.25</ele>
        <time>2015-08-28T16:02:18Z</time>
      </trkpt>
      <trkpt lat="46.80682" lon="5.52317">
        <ele>221.26</ele>
        <time>2015-08-28T16:02:21Z</time>
      </trkpt>
      <trkpt lat="46.80699" lon="5.5233">
        <ele>221.26</ele>
        <time>2015-08-28T16:02:24Z</time>
      </trkpt>
      <trkpt lat="46.80717" lon="5.52344">
        <ele>221.26</ele>
        <time>2015-08-28T16:02:27Z</time>
      </trkpt>
      <trkpt lat="46.80734" lon="5.52358">
        <ele>221.26</ele>
        <time>2015-08-28T16:02:30Z</time>
      </trkpt>
      <trkpt lat="46.80751" lon="5.52372">
        <ele>221.38</ele>
        <time>2015-08-28T16:02:33Z</time>
      </trkpt>
      <trkpt lat="46.80767" lon="5.52385">
        <ele>221.27</ele>
        <time>2015-08-28T16:02:36Z</time>
      </trkpt>
      <trkpt lat="46.80784" lon="5.52398">
        <ele>221.38</ele>
        <time>2015-08-28T16:02:39Z</time>
      </trkpt>
      <trkpt lat="46.80804" lon="5.52415">
        <ele>221.26</ele>
        <time>2015-08-28T16:02:43Z</time>
      </trkpt>
      <trkpt lat="46.80823" lon="5.52429">
        <ele>221.94</ele>
        <time>2015-08-28T16:02:47Z</time>
      </trkpt>
      <trkpt lat="46.80844" lon="5.52445">
        <ele>222.24</ele>
        <time>2015-08-28T16:02:51Z</time>
      </trkpt>
      <trkpt lat="46.80864" lon="5.52461">
        <ele>222.26</ele>
        <time>2015-08-28T16:02:55Z</time>
      </trkpt>
      <trkpt lat="46.80884" lon="5.52477">
        <ele>223.19</ele>
        <time>2015-08-28T16:02:59Z</time>
      </trkpt>
      <trkpt lat="46.80904" lon="5.52494">
        <ele>222.75</ele>
        <time>2015-08-28T16:03:03Z</time>
      </trkpt>
      <trkpt lat="46.8092" lon="5.52507">
        <ele>223.19</ele>
        <time>2015-08-28T16:03:06Z</time>
      </trkpt>
      <trkpt lat="46.80937" lon="5.5252">
        <ele>223.25</ele>
        <time>2015-08-28T16:03:09Z</time>
      </trkpt>
      <trkpt lat="46.80955" lon="5.52534">
        <ele>223.26</ele>
        <time>2015-08-28T16:03:12Z</time>
      </trkpt>
      <trkpt lat="46.80973" lon="5.5255">
        <ele>222.76</ele>
        <time>2015-08-28T16:03:15Z</time>
      </trkpt>
      <trkpt lat="46.80991" lon="5.52565">
        <ele>222.32</ele>
        <time>2015-08-28T16:03:18Z</time>
      </trkpt>
      <trkpt lat="46.8101" lon="5.52579">
        <ele>222.26</ele>
        <time>2015-08-28T16:03:21Z</time>
      </trkpt>
      <trkpt lat="46.81028" lon="5.52594">
        <ele>222.38</ele>
        <time>2015-08-28T16:03:24Z</time>
      </trkpt>
      <trkpt lat="46.81047" lon="5.52609">
        <ele>221.77</ele>
        <time>2015-08-28T16:03:27Z</time>
      </trkpt>
      <trkpt lat="46.81066" lon="5.52624">
        <ele>221.32</ele>
        <time>2015-08-28T16:03:30Z</time>
      </trkpt>
      <trkpt lat="46.81086" lon="5.52639">
        <ele>221.27</ele>
        <time>2015-08-28T16:03:33Z</time>
      </trkpt>
      <trkpt lat="46.81106" lon="5.52655">
        <ele>220.51</ele>
        <time>2015-08-28T16:03:36Z</time>
      </trkpt>
      <trkpt lat="46.81127" lon="5.52671">
        <ele>220.29</ele>
        <time>2015-08-28T16:03:39Z</time>
      </trkpt>
      <trkpt lat="46.81148" lon="5.52688">
        <ele>218.89</ele>
        <time>2015-08-28T16:03:42Z</time>
      </trkpt>
      <trkpt lat="46.8117" lon="5.52705">
        <ele>218.34</ele>
        <time>2015-08-28T16:03:45Z</time>
      </trkpt>
      <trkpt lat="46.81192" lon="5.52721">
        <ele>217.39</ele>
        <time>2015-08-28T16:03:48Z</time>
      </trkpt>
      <trkpt lat="46.81213" lon="5.52738">
        <ele>217.27</ele>
        <time>2015-08-28T16:03:51Z</time>
      </trkpt>
      <trkpt lat="46.81233" lon="5.52754">
        <ele>217.26</ele>
        <time>2015-08-28T16:03:54Z</time>
      </trkpt>
      <trkpt lat="46.81253" lon="5.5277">
        <ele>216.38</ele>
        <time>2015-08-28T16:03:57Z</time>
      </trkpt>
      <trkpt lat="46.81272" lon="5.52786">
        <ele>216.27</ele>
        <time>2015-08-28T16:04:00Z</time>
      </trkpt>
      <trkpt lat="46.81291" lon="5.52801">
        <ele>216.01</ele>
        <time>2015-08-28T16:04:03Z</time>
      </trkpt>
      <trkpt lat="46.81307" lon="5.52815">
        <ele>216.23</ele>
        <time>2015-08-28T16:04:06Z</time>
      </trkpt>
      <trkpt lat="46.8132" lon="5.5284">
        <ele>215.51</ele>
        <time>2015-08-28T16:04:10Z</time>
      </trkpt>
      <trkpt lat="46.81314" lon="5.52865">
        <ele>216.16</ele>
        <time>2015-08-28T16:04:13Z</time>
      </trkpt>
      <trkpt lat="46.81306" lon="5.52889">
        <ele>216.25</ele>
        <time>2015-08-28T16:04:16Z</time>
      </trkpt>
      <trkpt lat="46.81299" lon="5.52916">
        <ele>216.76</ele>
        <time>2015-08-28T16:04:19Z</time>
      </trkpt>
      <trkpt lat="46.81292" lon="5.5294">
        <ele>218.32</ele>
        <time>2015-08-28T16:04:22Z</time>
      </trkpt>
      <trkpt lat="46.81286" lon="5.52967">
        <ele>219.14</ele>
        <time>2015-08-28T16:04:25Z</time>
      </trkpt>
      <trkpt lat="46.81279" lon="5.52992">
        <ele>220.12</ele>
        <time>2015-08-28T16:04:28Z</time>
      </trkpt>
      <trkpt lat="46.8127" lon="5.53025">
        <ele>221.37</ele>
        <time>2015-08-28T16:04:32Z</time>
      </trkpt>
      <trkpt lat="46.81263" lon="5.5305">
        <ele>221.77</ele>
        <time>2015-08-28T16:04:35Z</time>
      </trkpt>
      <trkpt lat="46.81253" lon="5.5308">
        <ele>222.98</ele>
        <time>2015-08-28T16:04:39Z</time>
      </trkpt>
      <trkpt lat="46.81246" lon="5.53108">
        <ele>223.22</ele>
        <time>2015-08-28T16:04:42Z</time>
      </trkpt>
      <trkpt lat="46.81236" lon="5.53139">
        <ele>222.5</ele>
        <time>2015-08-28T16:04:45Z</time>
      </trkpt>
      <trkpt lat="46.81226" lon="5.53174">
        <ele>220.29</ele>
        <time>2015-08-28T16:04:48Z</time>
      </trkpt>
      <trkpt lat="46.81217" lon="5.53211">
        <ele>218.89</ele>
        <time>2015-08-28T16:04:51Z</time>
      </trkpt>
      <trkpt lat="46.81209" lon="5.53235">
        <ele>217.16</ele>
        <time>2015-08-28T16:04:53Z</time>
      </trkpt>
      <trkpt lat="46.81199" lon="5.53271">
        <ele>216.37</ele>
        <time>2015-08-28T16:04:56Z</time>
      </trkpt>
      <trkpt lat="46.81189" lon="5.53307">
        <ele>216.27</ele>
        <time>2015-08-28T16:04:59Z</time>
      </trkpt>
      <trkpt lat="46.8118" lon="5.5334">
        <ele>216.76</ele>
        <time>2015-08-28T16:05:02Z</time>
      </trkpt>
      <trkpt lat="46.81179" lon="5.53371">
        <ele>217.07</ele>
        <time>2015-08-28T16:05:05Z</time>
      </trkpt>
      <trkpt lat="46.81188" lon="5.53394">
        <ele>217.11</ele>
        <time>2015-08-28T16:05:08Z</time>
      </trkpt>
      <trkpt lat="46.81203" lon="5.5341">
        <ele>218</ele>
        <time>2015-08-28T16:05:12Z</time>
      </trkpt>
      <trkpt lat="46.81218" lon="5.53433">
        <ele>219.97</ele>
        <time>2015-08-28T16:05:17Z</time>
      </trkpt>
      <trkpt lat="46.81218" lon="5.5346">
        <ele>221.61</ele>
        <time>2015-08-28T16:05:21Z</time>
      </trkpt>
      <trkpt lat="46.81214" lon="5.53487">
        <ele>223.11</ele>
        <time>2015-08-28T16:05:26Z</time>
      </trkpt>
      <trkpt lat="46.8121" lon="5.53513">
        <ele>224.19</ele>
        <time>2015-08-28T16:05:31Z</time>
      </trkpt>
      <trkpt lat="46.81206" lon="5.53539">
        <ele>225.13</ele>
        <time>2015-08-28T16:05:36Z</time>
      </trkpt>
      <trkpt lat="46.81199" lon="5.53567">
        <ele>225.26</ele>
        <time>2015-08-28T16:05:42Z</time>
      </trkpt>
      <trkpt lat="46.81186" lon="5.53592">
        <ele>226.23</ele>
        <time>2015-08-28T16:05:50Z</time>
      </trkpt>
      <trkpt lat="46.81169" lon="5.53602">
        <ele>225.38</ele>
        <time>2015-08-28T16:05:54Z</time>
      </trkpt>
      <trkpt lat="46.81147" lon="5.53615">
        <ele>224.76</ele>
        <time>2015-08-28T16:05:58Z</time>
      </trkpt>
      <trkpt lat="46.81126" lon="5.53631">
        <ele>223.54</ele>
        <time>2015-08-28T16:06:02Z</time>
      </trkpt>
      <trkpt lat="46.81113" lon="5.53658">
        <ele>223.77</ele>
        <time>2015-08-28T16:06:06Z</time>
      </trkpt>
      <trkpt lat="46.81117" lon="5.53689">
        <ele>223.98</ele>
        <time>2015-08-28T16:06:10Z</time>
      </trkpt>
      <trkpt lat="46.81124" lon="5.53715">
        <ele>225.11</ele>
        <time>2015-08-28T16:06:14Z</time>
      </trkpt>
      <trkpt lat="46.8113" lon="5.53743">
        <ele>225.25</ele>
        <time>2015-08-28T16:06:18Z</time>
      </trkpt>
      <trkpt lat="46.81139" lon="5.53773">
        <ele>226.76</ele>
        <time>2015-08-28T16:06:22Z</time>
      </trkpt>
      <trkpt lat="46.81148" lon="5.53802">
        <ele>226.29</ele>
        <time>2015-08-28T16:06:26Z</time>
      </trkpt>
      <trkpt lat="46.81154" lon="5.53828">
        <ele>225.51</ele>
        <time>2015-08-28T16:06:30Z</time>
      </trkpt>
      <trkpt lat="46.81162" lon="5.53857">
        <ele>227.46</ele>
        <time>2015-08-28T16:06:34Z</time>
      </trkpt>
      <trkpt lat="46.81169" lon="5.53889">
        <ele>227.96</ele>
        <time>2015-08-28T16:06:38Z</time>
      </trkpt>
      <trkpt lat="46.81179" lon="5.53919">
        <ele>228.24</ele>
        <time>2015-08-28T16:06:42Z</time>
      </trkpt>
      <trkpt lat="46.81186" lon="5.53949">
        <ele>227.57</ele>
        <time>2015-08-28T16:06:46Z</time>
      </trkpt>
      <trkpt lat="46.81194" lon="5.53983">
        <ele>225.84</ele>
        <time>2015-08-28T16:06:50Z</time>
      </trkpt>
      <trkpt lat="46.812" lon="5.54008">
        <ele>225.33</ele>
        <time>2015-08-28T16:06:53Z</time>
      </trkpt>
      <trkpt lat="46.81209" lon="5.54035">
        <ele>224.64</ele>
        <time>2015-08-28T16:06:56Z</time>
      </trkpt>
      <trkpt lat="46.81215" lon="5.54063">
        <ele>223.06</ele>
        <time>2015-08-28T16:06:59Z</time>
      </trkpt>
      <trkpt lat="46.81222" lon="5.54089">
        <ele>222.36</ele>
        <time>2015-08-28T16:07:02Z</time>
      </trkpt>
      <trkpt lat="46.81227" lon="5.54115">
        <ele>223.02</ele>
        <time>2015-08-28T16:07:05Z</time>
      </trkpt>
      <trkpt lat="46.81235" lon="5.54141">
        <ele>223.23</ele>
        <time>2015-08-28T16:07:08Z</time>
      </trkpt>
      <trkpt lat="46.81243" lon="5.54167">
        <ele>223.25</ele>
        <time>2015-08-28T16:07:11Z</time>
      </trkpt>
      <trkpt lat="46.8125" lon="5.54193">
        <ele>224.63</ele>
        <time>2015-08-28T16:07:14Z</time>
      </trkpt>
      <trkpt lat="46.81257" lon="5.54222">
        <ele>224.3</ele>
        <time>2015-08-28T16:07:17Z</time>
      </trkpt>
      <trkpt lat="46.81264" lon="5.54248">
        <ele>224.76</ele>
        <time>2015-08-28T16:07:20Z</time>
      </trkpt>
      <trkpt lat="46.81272" lon="5.54273">
        <ele>223.57</ele>
        <time>2015-08-28T16:07:23Z</time>
      </trkpt>
      <trkpt lat="46.8128" lon="5.54305">
        <ele>224.28</ele>
        <time>2015-08-28T16:07:27Z</time>
      </trkpt>
      <trkpt lat="46.81287" lon="5.54331">
        <ele>224.26</ele>
        <time>2015-08-28T16:07:31Z</time>
      </trkpt>
      <trkpt lat="46.81294" lon="5.54357">
        <ele>225.88</ele>
        <time>2015-08-28T16:07:35Z</time>
      </trkpt>
      <trkpt lat="46.81302" lon="5.54386">
        <ele>228.05</ele>
        <time>2015-08-28T16:07:39Z</time>
      </trkpt>
      <trkpt lat="46.8131" lon="5.54414">
        <ele>228.12</ele>
        <time>2015-08-28T16:07:43Z</time>
      </trkpt>
      <trkpt lat="46.81317" lon="5.54443">
        <ele>229.12</ele>
        <time>2015-08-28T16:07:47Z</time>
      </trkpt>
      <trkpt lat="46.81326" lon="5.54471">
        <ele>229.87</ele>
        <time>2015-08-28T16:07:51Z</time>
      </trkpt>
      <trkpt lat="46.81334" lon="5.54498">
        <ele>230.98</ele>
        <time>2015-08-28T16:07:55Z</time>
      </trkpt>
      <trkpt lat="46.8134" lon="5.54523">
        <ele>230.74</ele>
        <time>2015-08-28T16:07:59Z</time>
      </trkpt>
      <trkpt lat="46.81346" lon="5.54548">
        <ele>231.97</ele>
        <time>2015-08-28T16:08:03Z</time>
      </trkpt>
      <trkpt lat="46.81353" lon="5.54575">
        <ele>232.18</ele>
        <time>2015-08-28T16:08:07Z</time>
      </trkpt>
      <trkpt lat="46.8136" lon="5.54601">
        <ele>232.06</ele>
        <time>2015-08-28T16:08:11Z</time>
      </trkpt>
      <trkpt lat="46.81366" lon="5.54626">
        <ele>232.24</ele>
        <time>2015-08-28T16:08:15Z</time>
      </trkpt>
      <trkpt lat="46.81373" lon="5.54651">
        <ele>233.13</ele>
        <time>2015-08-28T16:08:19Z</time>
      </trkpt>
      <trkpt lat="46.8138" lon="5.54676">
        <ele>232.31</ele>
        <time>2015-08-28T16:08:23Z</time>
      </trkpt>
      <trkpt lat="46.81388" lon="5.54701">
        <ele>233.01</ele>
        <time>2015-08-28T16:08:27Z</time>
      </trkpt>
      <trkpt lat="46.81395" lon="5.54726">
        <ele>233.93</ele>
        <time>2015-08-28T16:08:31Z</time>
      </trkpt>
      <trkpt lat="46.814" lon="5.54752">
        <ele>233.11</ele>
        <time>2015-08-28T16:08:35Z</time>
      </trkpt>
      <trkpt lat="46.81408" lon="5.54778">
        <ele>233.12</ele>
        <time>2015-08-28T16:08:39Z</time>
      </trkpt>
      <trkpt lat="46.81415" lon="5.54805">
        <ele>234.12</ele>
        <time>2015-08-28T16:08:43Z</time>
      </trkpt>
      <trkpt lat="46.81424" lon="5.54834">
        <ele>234.81</ele>
        <time>2015-08-28T16:08:47Z</time>
      </trkpt>
      <trkpt lat="46.81432" lon="5.54864">
        <ele>234.54</ele>
        <time>2015-08-28T16:08:51Z</time>
      </trkpt>
      <trkpt lat="46.81438" lon="5.5489">
        <ele>234.92</ele>
        <time>2015-08-28T16:08:54Z</time>
      </trkpt>
      <trkpt lat="46.81444" lon="5.54916">
        <ele>235.71</ele>
        <time>2015-08-28T16:08:57Z</time>
      </trkpt>
      <trkpt lat="46.8145" lon="5.54943">
        <ele>232.22</ele>
        <time>2015-08-28T16:09:01Z</time>
      </trkpt>
      <trkpt lat="46.81458" lon="5.54972">
        <ele>232.88</ele>
        <time>2015-08-28T16:09:05Z</time>
      </trkpt>
      <trkpt lat="46.81465" lon="5.55">
        <ele>230.53</ele>
        <time>2015-08-28T16:09:10Z</time>
      </trkpt>
      <trkpt lat="46.81471" lon="5.5503">
        <ele>231.81</ele>
        <time>2015-08-28T16:09:16Z</time>
      </trkpt>
      <trkpt lat="46.81478" lon="5.55057">
        <ele>232.72</ele>
        <time>2015-08-28T16:09:22Z</time>
      </trkpt>
      <trkpt lat="46.81487" lon="5.55085">
        <ele>234.1</ele>
        <time>2015-08-28T16:09:29Z</time>
      </trkpt>
      <trkpt lat="46.81494" lon="5.55113">
        <ele>237.58</ele>
        <time>2015-08-28T16:09:36Z</time>
      </trkpt>
      <trkpt lat="46.815" lon="5.55139">
        <ele>239.72</ele>
        <time>2015-08-28T16:09:42Z</time>
      </trkpt>
      <trkpt lat="46.81507" lon="5.55164">
        <ele>240.24</ele>
        <time>2015-08-28T16:09:47Z</time>
      </trkpt>
      <trkpt lat="46.81515" lon="5.55194">
        <ele>239.32</ele>
        <time>2015-08-28T16:09:52Z</time>
      </trkpt>
      <trkpt lat="46.81522" lon="5.55219">
        <ele>239.76</ele>
        <time>2015-08-28T16:09:56Z</time>
      </trkpt>
      <trkpt lat="46.81531" lon="5.55247">
        <ele>241.21</ele>
        <time>2015-08-28T16:10:01Z</time>
      </trkpt>
      <trkpt lat="46.81537" lon="5.55273">
        <ele>242.94</ele>
        <time>2015-08-28T16:10:06Z</time>
      </trkpt>
      <trkpt lat="46.81545" lon="5.553">
        <ele>244.97</ele>
        <time>2015-08-28T16:10:12Z</time>
      </trkpt>
      <trkpt lat="46.81552" lon="5.55328">
        <ele>246.13</ele>
        <time>2015-08-28T16:10:18Z</time>
      </trkpt>
      <trkpt lat="46.8156" lon="5.55357">
        <ele>247.74</ele>
        <time>2015-08-28T16:10:24Z</time>
      </trkpt>
      <trkpt lat="46.81569" lon="5.55385">
        <ele>249.06</ele>
        <time>2015-08-28T16:10:30Z</time>
      </trkpt>
      <trkpt lat="46.81576" lon="5.5541">
        <ele>251.09</ele>
        <time>2015-08-28T16:10:35Z</time>
      </trkpt>
      <trkpt lat="46.81583" lon="5.55435">
        <ele>252.24</ele>
        <time>2015-08-28T16:10:41Z</time>
      </trkpt>
      <trkpt lat="46.81588" lon="5.55462">
        <ele>251.07</ele>
        <time>2015-08-28T16:10:46Z</time>
      </trkpt>
      <trkpt lat="46.81595" lon="5.55489">
        <ele>249.87</ele>
        <time>2015-08-28T16:10:50Z</time>
      </trkpt>
      <trkpt lat="46.81602" lon="5.55519">
        <ele>248.8</ele>
        <time>2015-08-28T16:10:54Z</time>
      </trkpt>
      <trkpt lat="46.81608" lon="5.55551">
        <ele>251.42</ele>
        <time>2015-08-28T16:10:58Z</time>
      </trkpt>
      <trkpt lat="46.81616" lon="5.55579">
        <ele>252.9</ele>
        <time>2015-08-28T16:11:01Z</time>
      </trkpt>
      <trkpt lat="46.81623" lon="5.55605">
        <ele>253.09</ele>
        <time>2015-08-28T16:11:04Z</time>
      </trkpt>
      <trkpt lat="46.8163" lon="5.55634">
        <ele>251.24</ele>
        <time>2015-08-28T16:11:07Z</time>
      </trkpt>
      <trkpt lat="46.81639" lon="5.55664">
        <ele>250.26</ele>
        <time>2015-08-28T16:11:11Z</time>
      </trkpt>
      <trkpt lat="46.81644" lon="5.5569">
        <ele>250.26</ele>
        <time>2015-08-28T16:11:15Z</time>
      </trkpt>
      <trkpt lat="46.81649" lon="5.55718">
        <ele>250.44</ele>
        <time>2015-08-28T16:11:20Z</time>
      </trkpt>
      <trkpt lat="46.81654" lon="5.55746">
        <ele>250.07</ele>
        <time>2015-08-28T16:11:26Z</time>
      </trkpt>
      <trkpt lat="46.8166" lon="5.55774">
        <ele>252.13</ele>
        <time>2015-08-28T16:11:33Z</time>
      </trkpt>
      <trkpt lat="46.81664" lon="5.55799">
        <ele>252.22</ele>
        <time>2015-08-28T16:11:39Z</time>
      </trkpt>
      <trkpt lat="46.81665" lon="5.55828">
        <ele>253.8</ele>
        <time>2015-08-28T16:11:45Z</time>
      </trkpt>
      <trkpt lat="46.81668" lon="5.55854">
        <ele>246.65</ele>
        <time>2015-08-28T16:14:10Z</time>
      </trkpt>
      <trkpt lat="46.81663" lon="5.55881">
        <ele>254.22</ele>
        <time>2015-08-28T16:14:50Z</time>
      </trkpt>
      <trkpt lat="46.81662" lon="5.55908">
        <ele>256.51</ele>
        <time>2015-08-28T16:14:58Z</time>
      </trkpt>
      <trkpt lat="46.81661" lon="5.55935">
        <ele>259.14</ele>
        <time>2015-08-28T16:15:03Z</time>
      </trkpt>
      <trkpt lat="46.81664" lon="5.55962">
        <ele>259.97</ele>
        <time>2015-08-28T16:15:09Z</time>
      </trkpt>
      <trkpt lat="46.81684" lon="5.55969">
        <ele>261.19</ele>
        <time>2015-08-28T16:15:15Z</time>
      </trkpt>
      <trkpt lat="46.81705" lon="5.55969">
        <ele>260.38</ele>
        <time>2015-08-28T16:15:20Z</time>
      </trkpt>
      <trkpt lat="46.81727" lon="5.5597">
        <ele>257.7</ele>
        <time>2015-08-28T16:15:24Z</time>
      </trkpt>
      <trkpt lat="46.81746" lon="5.5597">
        <ele>256.44</ele>
        <time>2015-08-28T16:15:27Z</time>
      </trkpt>
      <trkpt lat="46.81767" lon="5.55969">
        <ele>254.65</ele>
        <time>2015-08-28T16:15:30Z</time>
      </trkpt>
      <trkpt lat="46.8179" lon="5.55967">
        <ele>252.68</ele>
        <time>2015-08-28T16:15:33Z</time>
      </trkpt>
      <trkpt lat="46.81815" lon="5.55964">
        <ele>251.06</ele>
        <time>2015-08-28T16:15:36Z</time>
      </trkpt>
      <trkpt lat="46.8184" lon="5.55961">
        <ele>248.98</ele>
        <time>2015-08-28T16:15:39Z</time>
      </trkpt>
      <trkpt lat="46.81866" lon="5.55958">
        <ele>247.85</ele>
        <time>2015-08-28T16:15:42Z</time>
      </trkpt>
      <trkpt lat="46.8189" lon="5.55954">
        <ele>247.33</ele>
        <time>2015-08-28T16:15:45Z</time>
      </trkpt>
      <trkpt lat="46.81913" lon="5.55949">
        <ele>247.27</ele>
        <time>2015-08-28T16:15:48Z</time>
      </trkpt>
      <trkpt lat="46.81931" lon="5.55968">
        <ele>247.26</ele>
        <time>2015-08-28T16:15:52Z</time>
      </trkpt>
      <trkpt lat="46.81936" lon="5.55999">
        <ele>248.13</ele>
        <time>2015-08-28T16:15:56Z</time>
      </trkpt>
      <trkpt lat="46.81945" lon="5.56027">
        <ele>248.25</ele>
        <time>2015-08-28T16:16:01Z</time>
      </trkpt>
      <trkpt lat="46.81961" lon="5.56046">
        <ele>249.98</ele>
        <time>2015-08-28T16:16:06Z</time>
      </trkpt>
      <trkpt lat="46.81977" lon="5.56068">
        <ele>251</ele>
        <time>2015-08-28T16:16:11Z</time>
      </trkpt>
      <trkpt lat="46.81992" lon="5.56093">
        <ele>252</ele>
        <time>2015-08-28T16:16:16Z</time>
      </trkpt>
      <trkpt lat="46.82006" lon="5.56114">
        <ele>252.74</ele>
        <time>2015-08-28T16:16:20Z</time>
      </trkpt>
      <trkpt lat="46.82019" lon="5.56134">
        <ele>254.1</ele>
        <time>2015-08-28T16:16:24Z</time>
      </trkpt>
      <trkpt lat="46.82033" lon="5.56154">
        <ele>255.18</ele>
        <time>2015-08-28T16:16:28Z</time>
      </trkpt>
      <trkpt lat="46.82047" lon="5.56174">
        <ele>255.25</ele>
        <time>2015-08-28T16:16:32Z</time>
      </trkpt>
      <trkpt lat="46.82062" lon="5.56194">
        <ele>255.26</ele>
        <time>2015-08-28T16:16:36Z</time>
      </trkpt>
      <trkpt lat="46.82077" lon="5.56217">
        <ele>254.76</ele>
        <time>2015-08-28T16:16:40Z</time>
      </trkpt>
      <trkpt lat="46.82094" lon="5.5624">
        <ele>254.29</ele>
        <time>2015-08-28T16:16:44Z</time>
      </trkpt>
      <trkpt lat="46.82111" lon="5.56264">
        <ele>254.26</ele>
        <time>2015-08-28T16:16:48Z</time>
      </trkpt>
      <trkpt lat="46.82127" lon="5.56289">
        <ele>253.69</ele>
        <time>2015-08-28T16:16:52Z</time>
      </trkpt>
      <trkpt lat="46.82145" lon="5.56311">
        <ele>254.16</ele>
        <time>2015-08-28T16:16:56Z</time>
      </trkpt>
      <trkpt lat="46.82162" lon="5.56334">
        <ele>254.75</ele>
        <time>2015-08-28T16:17:00Z</time>
      </trkpt>
      <trkpt lat="46.82176" lon="5.56352">
        <ele>255.19</ele>
        <time>2015-08-28T16:17:03Z</time>
      </trkpt>
      <trkpt lat="46.82191" lon="5.56366">
        <ele>256.12</ele>
        <time>2015-08-28T16:17:06Z</time>
      </trkpt>
      <trkpt lat="46.82208" lon="5.56383">
        <ele>255.37</ele>
        <time>2015-08-28T16:17:09Z</time>
      </trkpt>
      <trkpt lat="46.82229" lon="5.56393">
        <ele>256.02</ele>
        <time>2015-08-28T16:17:12Z</time>
      </trkpt>
      <trkpt lat="46.82251" lon="5.56401">
        <ele>254.98</ele>
        <time>2015-08-28T16:17:15Z</time>
      </trkpt>
      <trkpt lat="46.82274" lon="5.56413">
        <ele>252.97</ele>
        <time>2015-08-28T16:17:18Z</time>
      </trkpt>
      <trkpt lat="46.82297" lon="5.56429">
        <ele>251.6</ele>
        <time>2015-08-28T16:17:21Z</time>
      </trkpt>
      <trkpt lat="46.8232" lon="5.56446">
        <ele>250.8</ele>
        <time>2015-08-28T16:17:24Z</time>
      </trkpt>
      <trkpt lat="46.82344" lon="5.56464">
        <ele>249.57</ele>
        <time>2015-08-28T16:17:27Z</time>
      </trkpt>
      <trkpt lat="46.82368" lon="5.56483">
        <ele>249.3</ele>
        <time>2015-08-28T16:17:30Z</time>
      </trkpt>
      <trkpt lat="46.82384" lon="5.56499">
        <ele>248.52</ele>
        <time>2015-08-28T16:17:32Z</time>
      </trkpt>
      <trkpt lat="46.82403" lon="5.5652">
        <ele>246.29</ele>
        <time>2015-08-28T16:17:35Z</time>
      </trkpt>
      <trkpt lat="46.824" lon="5.56547">
        <ele>243.95</ele>
        <time>2015-08-28T16:17:40Z</time>
      </trkpt>
      <trkpt lat="46.82383" lon="5.5656">
        <ele>243.49</ele>
        <time>2015-08-28T16:17:44Z</time>
      </trkpt>
      <trkpt lat="46.82366" lon="5.56576">
        <ele>245.46</ele>
        <time>2015-08-28T16:17:48Z</time>
      </trkpt>
      <trkpt lat="46.82347" lon="5.56589">
        <ele>246.46</ele>
        <time>2015-08-28T16:17:52Z</time>
      </trkpt>
      <trkpt lat="46.8233" lon="5.566">
        <ele>248.08</ele>
        <time>2015-08-28T16:17:56Z</time>
      </trkpt>
      <trkpt lat="46.82311" lon="5.56612">
        <ele>249.22</ele>
        <time>2015-08-28T16:18:01Z</time>
      </trkpt>
      <trkpt lat="46.82289" lon="5.56614">
        <ele>250.22</ele>
        <time>2015-08-28T16:18:06Z</time>
      </trkpt>
      <trkpt lat="46.82269" lon="5.56607">
        <ele>251.22</ele>
        <time>2015-08-28T16:18:11Z</time>
      </trkpt>
      <trkpt lat="46.8225" lon="5.56597">
        <ele>252.19</ele>
        <time>2015-08-28T16:18:16Z</time>
      </trkpt>
      <trkpt lat="46.82231" lon="5.56595">
        <ele>252.26</ele>
        <time>2015-08-28T16:18:21Z</time>
      </trkpt>
      <trkpt lat="46.8221" lon="5.56603">
        <ele>251.51</ele>
        <time>2015-08-28T16:18:25Z</time>
      </trkpt>
      <trkpt lat="46.82189" lon="5.56617">
        <ele>249.16</ele>
        <time>2015-08-28T16:18:28Z</time>
      </trkpt>
      <trkpt lat="46.82163" lon="5.56627">
        <ele>247</ele>
        <time>2015-08-28T16:18:31Z</time>
      </trkpt>
      <trkpt lat="46.82145" lon="5.5663">
        <ele>246.69</ele>
        <time>2015-08-28T16:18:33Z</time>
      </trkpt>
      <trkpt lat="46.8212" lon="5.56636">
        <ele>246.31</ele>
        <time>2015-08-28T16:18:36Z</time>
      </trkpt>
      <trkpt lat="46.82098" lon="5.56643">
        <ele>247.64</ele>
        <time>2015-08-28T16:18:39Z</time>
      </trkpt>
      <trkpt lat="46.8208" lon="5.56653">
        <ele>249.59</ele>
        <time>2015-08-28T16:18:43Z</time>
      </trkpt>
      <trkpt lat="46.8206" lon="5.5666">
        <ele>252.68</ele>
        <time>2015-08-28T16:18:52Z</time>
      </trkpt>
      <trkpt lat="46.82042" lon="5.56663">
        <ele>254.14</ele>
        <time>2015-08-28T16:19:00Z</time>
      </trkpt>
      <trkpt lat="46.82023" lon="5.56666">
        <ele>256.1</ele>
        <time>2015-08-28T16:19:09Z</time>
      </trkpt>
      <trkpt lat="46.82006" lon="5.56675">
        <ele>258.22</ele>
        <time>2015-08-28T16:19:17Z</time>
      </trkpt>
      <trkpt lat="46.81988" lon="5.56683">
        <ele>260.12</ele>
        <time>2015-08-28T16:19:25Z</time>
      </trkpt>
      <trkpt lat="46.8197" lon="5.56692">
        <ele>263.61</ele>
        <time>2015-08-28T16:19:34Z</time>
      </trkpt>
      <trkpt lat="46.81953" lon="5.56703">
        <ele>266.11</ele>
        <time>2015-08-28T16:19:42Z</time>
      </trkpt>
      <trkpt lat="46.81935" lon="5.56711">
        <ele>268.24</ele>
        <time>2015-08-28T16:19:50Z</time>
      </trkpt>
      <trkpt lat="46.81917" lon="5.56717">
        <ele>270.69</ele>
        <time>2015-08-28T16:19:59Z</time>
      </trkpt>
      <trkpt lat="46.819" lon="5.56725">
        <ele>273.1</ele>
        <time>2015-08-28T16:20:07Z</time>
      </trkpt>
      <trkpt lat="46.81882" lon="5.56733">
        <ele>275</ele>
        <time>2015-08-28T16:20:16Z</time>
      </trkpt>
      <trkpt lat="46.81863" lon="5.56744">
        <ele>276.24</ele>
        <time>2015-08-28T16:20:25Z</time>
      </trkpt>
      <trkpt lat="46.81846" lon="5.56754">
        <ele>279.1</ele>
        <time>2015-08-28T16:20:34Z</time>
      </trkpt>
      <trkpt lat="46.81832" lon="5.56772">
        <ele>281.99</ele>
        <time>2015-08-28T16:20:45Z</time>
      </trkpt>
      <trkpt lat="46.81821" lon="5.56794">
        <ele>288.86</ele>
        <time>2015-08-28T16:20:58Z</time>
      </trkpt>
      <trkpt lat="46.8181" lon="5.56816">
        <ele>291.21</ele>
        <time>2015-08-28T16:21:10Z</time>
      </trkpt>
      <trkpt lat="46.8182" lon="5.56842">
        <ele>295.53</ele>
        <time>2015-08-28T16:21:19Z</time>
      </trkpt>
      <trkpt lat="46.81836" lon="5.56861">
        <ele>296.65</ele>
        <time>2015-08-28T16:21:23Z</time>
      </trkpt>
      <trkpt lat="46.81854" lon="5.56882">
        <ele>293.66</ele>
        <time>2015-08-28T16:21:27Z</time>
      </trkpt>
      <trkpt lat="46.81869" lon="5.56904">
        <ele>292.41</ele>
        <time>2015-08-28T16:21:31Z</time>
      </trkpt>
      <trkpt lat="46.81885" lon="5.56916">
        <ele>292.78</ele>
        <time>2015-08-28T16:21:34Z</time>
      </trkpt>
      <trkpt lat="46.81903" lon="5.56925">
        <ele>289.85</ele>
        <time>2015-08-28T16:21:38Z</time>
      </trkpt>
      <trkpt lat="46.81921" lon="5.56935">
        <ele>284.36</ele>
        <time>2015-08-28T16:21:42Z</time>
      </trkpt>
      <trkpt lat="46.81939" lon="5.56953">
        <ele>281.76</ele>
        <time>2015-08-28T16:21:46Z</time>
      </trkpt>
      <trkpt lat="46.81954" lon="5.56971">
        <ele>279.07</ele>
        <time>2015-08-28T16:21:49Z</time>
      </trkpt>
      <trkpt lat="46.8197" lon="5.56994">
        <ele>275.36</ele>
        <time>2015-08-28T16:21:52Z</time>
      </trkpt>
      <trkpt lat="46.81986" lon="5.57015">
        <ele>274.52</ele>
        <time>2015-08-28T16:21:55Z</time>
      </trkpt>
      <trkpt lat="46.81998" lon="5.57037">
        <ele>273.66</ele>
        <time>2015-08-28T16:21:58Z</time>
      </trkpt>
      <trkpt lat="46.82019" lon="5.57049">
        <ele>269.93</ele>
        <time>2015-08-28T16:22:01Z</time>
      </trkpt>
      <trkpt lat="46.82039" lon="5.57067">
        <ele>269.47</ele>
        <time>2015-08-28T16:22:04Z</time>
      </trkpt>
      <trkpt lat="46.8206" lon="5.57086">
        <ele>268.03</ele>
        <time>2015-08-28T16:22:07Z</time>
      </trkpt>
      <trkpt lat="46.82081" lon="5.571">
        <ele>264.98</ele>
        <time>2015-08-28T16:22:10Z</time>
      </trkpt>
      <trkpt lat="46.82099" lon="5.57107">
        <ele>264.35</ele>
        <time>2015-08-28T16:22:13Z</time>
      </trkpt>
      <trkpt lat="46.82118" lon="5.57108">
        <ele>265.2</ele>
        <time>2015-08-28T16:22:17Z</time>
      </trkpt>
      <trkpt lat="46.82137" lon="5.57114">
        <ele>265.32</ele>
        <time>2015-08-28T16:22:21Z</time>
      </trkpt>
      <trkpt lat="46.82157" lon="5.57117">
        <ele>268.73</ele>
        <time>2015-08-28T16:22:26Z</time>
      </trkpt>
      <trkpt lat="46.82176" lon="5.57121">
        <ele>270.24</ele>
        <time>2015-08-28T16:22:31Z</time>
      </trkpt>
      <trkpt lat="46.82196" lon="5.57133">
        <ele>268.13</ele>
        <time>2015-08-28T16:22:36Z</time>
      </trkpt>
      <trkpt lat="46.82212" lon="5.57151">
        <ele>266.56</ele>
        <time>2015-08-28T16:22:40Z</time>
      </trkpt>
      <trkpt lat="46.82228" lon="5.57167">
        <ele>264.84</ele>
        <time>2015-08-28T16:22:44Z</time>
      </trkpt>
      <trkpt lat="46.82243" lon="5.57182">
        <ele>261.73</ele>
        <time>2015-08-28T16:22:48Z</time>
      </trkpt>
      <trkpt lat="46.82259" lon="5.57197">
        <ele>258.69</ele>
        <time>2015-08-28T16:22:51Z</time>
      </trkpt>
      <trkpt lat="46.82274" lon="5.5721">
        <ele>256.06</ele>
        <time>2015-08-28T16:22:54Z</time>
      </trkpt>
      <trkpt lat="46.82293" lon="5.5723">
        <ele>253.86</ele>
        <time>2015-08-28T16:22:57Z</time>
      </trkpt>
      <trkpt lat="46.82298" lon="5.57261">
        <ele>247.92</ele>
        <time>2015-08-28T16:23:01Z</time>
      </trkpt>
      <trkpt lat="46.82318" lon="5.57277">
        <ele>239.64</ele>
        <time>2015-08-28T16:23:08Z</time>
      </trkpt>
      <trkpt lat="46.82339" lon="5.57282">
        <ele>238.3</ele>
        <time>2015-08-28T16:23:13Z</time>
      </trkpt>
      <trkpt lat="46.8236" lon="5.57277">
        <ele>236.26</ele>
        <time>2015-08-28T16:23:18Z</time>
      </trkpt>
      <trkpt lat="46.82379" lon="5.57269">
        <ele>232.76</ele>
        <time>2015-08-28T16:23:22Z</time>
      </trkpt>
      <trkpt lat="46.82398" lon="5.57264">
        <ele>231.07</ele>
        <time>2015-08-28T16:23:25Z</time>
      </trkpt>
      <trkpt lat="46.82416" lon="5.5726">
        <ele>230.36</ele>
        <time>2015-08-28T16:23:28Z</time>
      </trkpt>
      <trkpt lat="46.824" lon="5.57276">
        <ele>228.15</ele>
        <time>2015-08-28T16:23:38Z</time>
      </trkpt>
      <trkpt lat="46.82382" lon="5.57286">
        <ele>229.94</ele>
        <time>2015-08-28T16:23:42Z</time>
      </trkpt>
      <trkpt lat="46.82364" lon="5.57299">
        <ele>231.05</ele>
        <time>2015-08-28T16:23:46Z</time>
      </trkpt>
      <trkpt lat="46.82345" lon="5.57312">
        <ele>230.37</ele>
        <time>2015-08-28T16:23:50Z</time>
      </trkpt>
      <trkpt lat="46.82324" lon="5.57317">
        <ele>230.45</ele>
        <time>2015-08-28T16:23:54Z</time>
      </trkpt>
      <trkpt lat="46.82306" lon="5.57321">
        <ele>231.71</ele>
        <time>2015-08-28T16:23:58Z</time>
      </trkpt>
      <trkpt lat="46.82285" lon="5.57325">
        <ele>230.86</ele>
        <time>2015-08-28T16:24:03Z</time>
      </trkpt>
      <trkpt lat="46.82265" lon="5.57324">
        <ele>229.79</ele>
        <time>2015-08-28T16:24:07Z</time>
      </trkpt>
      <trkpt lat="46.82245" lon="5.57319">
        <ele>228.54</ele>
        <time>2015-08-28T16:24:11Z</time>
      </trkpt>
      <trkpt lat="46.82222" lon="5.57314">
        <ele>227.77</ele>
        <time>2015-08-28T16:24:15Z</time>
      </trkpt>
      <trkpt lat="46.82203" lon="5.57311">
        <ele>227.32</ele>
        <time>2015-08-28T16:24:18Z</time>
      </trkpt>
      <trkpt lat="46.8218" lon="5.57308">
        <ele>226.7</ele>
        <time>2015-08-28T16:24:22Z</time>
      </trkpt>
      <trkpt lat="46.82162" lon="5.57303">
        <ele>227.06</ele>
        <time>2015-08-28T16:24:25Z</time>
      </trkpt>
      <trkpt lat="46.82138" lon="5.57303">
        <ele>226.31</ele>
        <time>2015-08-28T16:24:29Z</time>
      </trkpt>
      <trkpt lat="46.82115" lon="5.57305">
        <ele>226.26</ele>
        <time>2015-08-28T16:24:33Z</time>
      </trkpt>
      <trkpt lat="46.82097" lon="5.5731">
        <ele>226.26</ele>
        <time>2015-08-28T16:24:36Z</time>
      </trkpt>
      <trkpt lat="46.82073" lon="5.57313">
        <ele>225.57</ele>
        <time>2015-08-28T16:24:40Z</time>
      </trkpt>
      <trkpt lat="46.8205" lon="5.5731">
        <ele>226.15</ele>
        <time>2015-08-28T16:24:44Z</time>
      </trkpt>
      <trkpt lat="46.82031" lon="5.57309">
        <ele>226.87</ele>
        <time>2015-08-28T16:24:47Z</time>
      </trkpt>
      <trkpt lat="46.82008" lon="5.57309">
        <ele>227.73</ele>
        <time>2015-08-28T16:24:51Z</time>
      </trkpt>
      <trkpt lat="46.81986" lon="5.57305">
        <ele>227.16</ele>
        <time>2015-08-28T16:24:55Z</time>
      </trkpt>
      <trkpt lat="46.81962" lon="5.57304">
        <ele>228.5</ele>
        <time>2015-08-28T16:24:59Z</time>
      </trkpt>
      <trkpt lat="46.81945" lon="5.57295">
        <ele>227.66</ele>
        <time>2015-08-28T16:25:02Z</time>
      </trkpt>
      <trkpt lat="46.81923" lon="5.57284">
        <ele>226.41</ele>
        <time>2015-08-28T16:25:06Z</time>
      </trkpt>
      <trkpt lat="46.819" lon="5.57281">
        <ele>227.14</ele>
        <time>2015-08-28T16:25:10Z</time>
      </trkpt>
      <trkpt lat="46.81882" lon="5.57285">
        <ele>228.49</ele>
        <time>2015-08-28T16:25:13Z</time>
      </trkpt>
      <trkpt lat="46.81865" lon="5.57294">
        <ele>228.79</ele>
        <time>2015-08-28T16:25:16Z</time>
      </trkpt>
      <trkpt lat="46.81843" lon="5.57305">
        <ele>228.48</ele>
        <time>2015-08-28T16:25:20Z</time>
      </trkpt>
      <trkpt lat="46.81827" lon="5.57316">
        <ele>227.53</ele>
        <time>2015-08-28T16:25:23Z</time>
      </trkpt>
      <trkpt lat="46.81811" lon="5.5733">
        <ele>228.17</ele>
        <time>2015-08-28T16:25:26Z</time>
      </trkpt>
      <trkpt lat="46.81798" lon="5.57358">
        <ele>229.13</ele>
        <time>2015-08-28T16:25:30Z</time>
      </trkpt>
      <trkpt lat="46.81788" lon="5.5738">
        <ele>228.49</ele>
        <time>2015-08-28T16:25:33Z</time>
      </trkpt>
      <trkpt lat="46.81779" lon="5.57403">
        <ele>228.29</ele>
        <time>2015-08-28T16:25:36Z</time>
      </trkpt>
      <trkpt lat="46.81769" lon="5.57432">
        <ele>227.32</ele>
        <time>2015-08-28T16:25:40Z</time>
      </trkpt>
      <trkpt lat="46.81758" lon="5.57458">
        <ele>228.13</ele>
        <time>2015-08-28T16:25:45Z</time>
      </trkpt>
      <trkpt lat="46.81747" lon="5.57479">
        <ele>229</ele>
        <time>2015-08-28T16:25:50Z</time>
      </trkpt>
      <trkpt lat="46.81734" lon="5.57498">
        <ele>228.3</ele>
        <time>2015-08-28T16:25:54Z</time>
      </trkpt>
      <trkpt lat="46.81718" lon="5.5752">
        <ele>227.76</ele>
        <time>2015-08-28T16:25:58Z</time>
      </trkpt>
      <trkpt lat="46.817" lon="5.57542">
        <ele>228.04</ele>
        <time>2015-08-28T16:26:02Z</time>
      </trkpt>
      <trkpt lat="46.81682" lon="5.57561">
        <ele>228.24</ele>
        <time>2015-08-28T16:26:06Z</time>
      </trkpt>
      <trkpt lat="46.81663" lon="5.57582">
        <ele>229.19</ele>
        <time>2015-08-28T16:26:10Z</time>
      </trkpt>
      <trkpt lat="46.81645" lon="5.57604">
        <ele>229.25</ele>
        <time>2015-08-28T16:26:14Z</time>
      </trkpt>
      <trkpt lat="46.8163" lon="5.57622">
        <ele>228.76</ele>
        <time>2015-08-28T16:26:18Z</time>
      </trkpt>
      <trkpt lat="46.81611" lon="5.57612">
        <ele>229.71</ele>
        <time>2015-08-28T16:26:23Z</time>
      </trkpt>
      <trkpt lat="46.81598" lon="5.57589">
        <ele>230.02</ele>
        <time>2015-08-28T16:26:28Z</time>
      </trkpt>
      <trkpt lat="46.81584" lon="5.57566">
        <ele>230.25</ele>
        <time>2015-08-28T16:26:33Z</time>
      </trkpt>
      <trkpt lat="46.8157" lon="5.57542">
        <ele>231.69</ele>
        <time>2015-08-28T16:26:38Z</time>
      </trkpt>
      <trkpt lat="46.81556" lon="5.57518">
        <ele>232.49</ele>
        <time>2015-08-28T16:26:43Z</time>
      </trkpt>
      <trkpt lat="46.81541" lon="5.57495">
        <ele>233.23</ele>
        <time>2015-08-28T16:26:48Z</time>
      </trkpt>
      <trkpt lat="46.81527" lon="5.57475">
        <ele>234.04</ele>
        <time>2015-08-28T16:26:53Z</time>
      </trkpt>
      <trkpt lat="46.81513" lon="5.57457">
        <ele>236.1</ele>
        <time>2015-08-28T16:27:00Z</time>
      </trkpt>
      <trkpt lat="46.81498" lon="5.57437">
        <ele>237.01</ele>
        <time>2015-08-28T16:27:07Z</time>
      </trkpt>
      <trkpt lat="46.81484" lon="5.5742">
        <ele>238.97</ele>
        <time>2015-08-28T16:27:14Z</time>
      </trkpt>
      <trkpt lat="46.81469" lon="5.57402">
        <ele>240.19</ele>
        <time>2015-08-28T16:27:21Z</time>
      </trkpt>
      <trkpt lat="46.81453" lon="5.57384">
        <ele>241.23</ele>
        <time>2015-08-28T16:27:28Z</time>
      </trkpt>
      <trkpt lat="46.81439" lon="5.57366">
        <ele>241.99</ele>
        <time>2015-08-28T16:27:34Z</time>
      </trkpt>
      <trkpt lat="46.81423" lon="5.57347">
        <ele>242.25</ele>
        <time>2015-08-28T16:27:39Z</time>
      </trkpt>
      <trkpt lat="46.81408" lon="5.57327">
        <ele>241.38</ele>
        <time>2015-08-28T16:27:43Z</time>
      </trkpt>
      <trkpt lat="46.8139" lon="5.57304">
        <ele>240.76</ele>
        <time>2015-08-28T16:27:47Z</time>
      </trkpt>
      <trkpt lat="46.81375" lon="5.57285">
        <ele>240.32</ele>
        <time>2015-08-28T16:27:50Z</time>
      </trkpt>
      <trkpt lat="46.8136" lon="5.57264">
        <ele>239.51</ele>
        <time>2015-08-28T16:27:53Z</time>
      </trkpt>
      <trkpt lat="46.81345" lon="5.57245">
        <ele>239.29</ele>
        <time>2015-08-28T16:27:56Z</time>
      </trkpt>
      <trkpt lat="46.8133" lon="5.57225">
        <ele>239.26</ele>
        <time>2015-08-28T16:27:59Z</time>
      </trkpt>
      <trkpt lat="46.81317" lon="5.57204">
        <ele>239.26</ele>
        <time>2015-08-28T16:28:02Z</time>
      </trkpt>
      <trkpt lat="46.81302" lon="5.57186">
        <ele>239.26</ele>
        <time>2015-08-28T16:28:05Z</time>
      </trkpt>
      <trkpt lat="46.8129" lon="5.57167">
        <ele>239.26</ele>
        <time>2015-08-28T16:28:08Z</time>
      </trkpt>
      <trkpt lat="46.81277" lon="5.57148">
        <ele>240.13</ele>
        <time>2015-08-28T16:28:11Z</time>
      </trkpt>
      <trkpt lat="46.81265" lon="5.57128">
        <ele>240.12</ele>
        <time>2015-08-28T16:28:14Z</time>
      </trkpt>
      <trkpt lat="46.81252" lon="5.57108">
        <ele>240.24</ele>
        <time>2015-08-28T16:28:17Z</time>
      </trkpt>
      <trkpt lat="46.81239" lon="5.57089">
        <ele>239.5</ele>
        <time>2015-08-28T16:28:20Z</time>
      </trkpt>
      <trkpt lat="46.81226" lon="5.57069">
        <ele>239.79</ele>
        <time>2015-08-28T16:28:23Z</time>
      </trkpt>
      <trkpt lat="46.81213" lon="5.57051">
        <ele>240.7</ele>
        <time>2015-08-28T16:28:26Z</time>
      </trkpt>
      <trkpt lat="46.81196" lon="5.57028">
        <ele>240.47</ele>
        <time>2015-08-28T16:28:30Z</time>
      </trkpt>
      <trkpt lat="46.81177" lon="5.57006">
        <ele>241.21</ele>
        <time>2015-08-28T16:28:34Z</time>
      </trkpt>
      <trkpt lat="46.81159" lon="5.56986">
        <ele>242.19</ele>
        <time>2015-08-28T16:28:38Z</time>
      </trkpt>
      <trkpt lat="46.81141" lon="5.56964">
        <ele>242.25</ele>
        <time>2015-08-28T16:28:42Z</time>
      </trkpt>
      <trkpt lat="46.81122" lon="5.56942">
        <ele>242.26</ele>
        <time>2015-08-28T16:28:46Z</time>
      </trkpt>
      <trkpt lat="46.81107" lon="5.56928">
        <ele>242.76</ele>
        <time>2015-08-28T16:28:49Z</time>
      </trkpt>
      <trkpt lat="46.81086" lon="5.56915">
        <ele>242.29</ele>
        <time>2015-08-28T16:28:53Z</time>
      </trkpt>
      <trkpt lat="46.81063" lon="5.56905">
        <ele>242.26</ele>
        <time>2015-08-28T16:28:57Z</time>
      </trkpt>
      <trkpt lat="46.8104" lon="5.56896">
        <ele>242.26</ele>
        <time>2015-08-28T16:29:01Z</time>
      </trkpt>
      <trkpt lat="46.81023" lon="5.56887">
        <ele>242.26</ele>
        <time>2015-08-28T16:29:04Z</time>
      </trkpt>
      <trkpt lat="46.81001" lon="5.56877">
        <ele>243.13</ele>
        <time>2015-08-28T16:29:08Z</time>
      </trkpt>
      <trkpt lat="46.80983" lon="5.56869">
        <ele>243.24</ele>
        <time>2015-08-28T16:29:11Z</time>
      </trkpt>
      <trkpt lat="46.80965" lon="5.56862">
        <ele>243.26</ele>
        <time>2015-08-28T16:29:14Z</time>
      </trkpt>
      <trkpt lat="46.80947" lon="5.56857">
        <ele>244.01</ele>
        <time>2015-08-28T16:29:17Z</time>
      </trkpt>
      <trkpt lat="46.80924" lon="5.5685">
        <ele>244.24</ele>
        <time>2015-08-28T16:29:21Z</time>
      </trkpt>
      <trkpt lat="46.80901" lon="5.56844">
        <ele>245.01</ele>
        <time>2015-08-28T16:29:25Z</time>
      </trkpt>
      <trkpt lat="46.8088" lon="5.56837">
        <ele>245.24</ele>
        <time>2015-08-28T16:29:29Z</time>
      </trkpt>
      <trkpt lat="46.80858" lon="5.5683">
        <ele>245.76</ele>
        <time>2015-08-28T16:29:33Z</time>
      </trkpt>
      <trkpt lat="46.80837" lon="5.56824">
        <ele>246.98</ele>
        <time>2015-08-28T16:29:37Z</time>
      </trkpt>
      <trkpt lat="46.80817" lon="5.56818">
        <ele>247.24</ele>
        <time>2015-08-28T16:29:41Z</time>
      </trkpt>
      <trkpt lat="46.80797" lon="5.56813">
        <ele>248.19</ele>
        <time>2015-08-28T16:29:45Z</time>
      </trkpt>
      <trkpt lat="46.80778" lon="5.5681">
        <ele>249.19</ele>
        <time>2015-08-28T16:29:49Z</time>
      </trkpt>
      <trkpt lat="46.8076" lon="5.56807">
        <ele>250.13</ele>
        <time>2015-08-28T16:29:53Z</time>
      </trkpt>
      <trkpt lat="46.80741" lon="5.56804">
        <ele>250.25</ele>
        <time>2015-08-28T16:29:57Z</time>
      </trkpt>
      <trkpt lat="46.80722" lon="5.56799">
        <ele>249.82</ele>
        <time>2015-08-28T16:30:01Z</time>
      </trkpt>
      <trkpt lat="46.80702" lon="5.56791">
        <ele>250.23</ele>
        <time>2015-08-28T16:30:05Z</time>
      </trkpt>
      <trkpt lat="46.80682" lon="5.5678">
        <ele>249.38</ele>
        <time>2015-08-28T16:30:09Z</time>
      </trkpt>
      <trkpt lat="46.80663" lon="5.56769">
        <ele>250.14</ele>
        <time>2015-08-28T16:30:13Z</time>
      </trkpt>
      <trkpt lat="46.80644" lon="5.56757">
        <ele>250</ele>
        <time>2015-08-28T16:30:17Z</time>
      </trkpt>
      <trkpt lat="46.80624" lon="5.56743">
        <ele>249.8</ele>
        <time>2015-08-28T16:30:21Z</time>
      </trkpt>
      <trkpt lat="46.80605" lon="5.56731">
        <ele>250.73</ele>
        <time>2015-08-28T16:30:25Z</time>
      </trkpt>
      <trkpt lat="46.80585" lon="5.56717">
        <ele>251.72</ele>
        <time>2015-08-28T16:30:29Z</time>
      </trkpt>
      <trkpt lat="46.80566" lon="5.56703">
        <ele>252.22</ele>
        <time>2015-08-28T16:30:33Z</time>
      </trkpt>
      <trkpt lat="46.80547" lon="5.56688">
        <ele>253.94</ele>
        <time>2015-08-28T16:30:37Z</time>
      </trkpt>
      <trkpt lat="46.80527" lon="5.56673">
        <ele>254.24</ele>
        <time>2015-08-28T16:30:41Z</time>
      </trkpt>
      <trkpt lat="46.80509" lon="5.56658">
        <ele>254.26</ele>
        <time>2015-08-28T16:30:45Z</time>
      </trkpt>
      <trkpt lat="46.8049" lon="5.56643">
        <ele>255.19</ele>
        <time>2015-08-28T16:30:49Z</time>
      </trkpt>
      <trkpt lat="46.80473" lon="5.56629">
        <ele>255.25</ele>
        <time>2015-08-28T16:30:53Z</time>
      </trkpt>
      <trkpt lat="46.80456" lon="5.56615">
        <ele>255.26</ele>
        <time>2015-08-28T16:30:57Z</time>
      </trkpt>
      <trkpt lat="46.8044" lon="5.56602">
        <ele>256.01</ele>
        <time>2015-08-28T16:31:01Z</time>
      </trkpt>
      <trkpt lat="46.80423" lon="5.56587">
        <ele>256.74</ele>
        <time>2015-08-28T16:31:05Z</time>
      </trkpt>
      <trkpt lat="46.80408" lon="5.56574">
        <ele>257.22</ele>
        <time>2015-08-28T16:31:09Z</time>
      </trkpt>
      <trkpt lat="46.80391" lon="5.5656">
        <ele>258.19</ele>
        <time>2015-08-28T16:31:14Z</time>
      </trkpt>
      <trkpt lat="46.80373" lon="5.56545">
        <ele>259.22</ele>
        <time>2015-08-28T16:31:20Z</time>
      </trkpt>
      <trkpt lat="46.80357" lon="5.5653">
        <ele>260.99</ele>
        <time>2015-08-28T16:31:26Z</time>
      </trkpt>
      <trkpt lat="46.80341" lon="5.56516">
        <ele>262.22</ele>
        <time>2015-08-28T16:31:32Z</time>
      </trkpt>
      <trkpt lat="46.80323" lon="5.56501">
        <ele>263.69</ele>
        <time>2015-08-28T16:31:38Z</time>
      </trkpt>
      <trkpt lat="46.80305" lon="5.56486">
        <ele>264.75</ele>
        <time>2015-08-28T16:31:44Z</time>
      </trkpt>
      <trkpt lat="46.80285" lon="5.56475">
        <ele>266</ele>
        <time>2015-08-28T16:31:50Z</time>
      </trkpt>
      <trkpt lat="46.80265" lon="5.56466">
        <ele>267.22</ele>
        <time>2015-08-28T16:31:56Z</time>
      </trkpt>
      <trkpt lat="46.80246" lon="5.56456">
        <ele>268.23</ele>
        <time>2015-08-28T16:32:03Z</time>
      </trkpt>
      <trkpt lat="46.80227" lon="5.56446">
        <ele>269.98</ele>
        <time>2015-08-28T16:32:10Z</time>
      </trkpt>
      <trkpt lat="46.80209" lon="5.56438">
        <ele>270.75</ele>
        <time>2015-08-28T16:32:16Z</time>
      </trkpt>
      <trkpt lat="46.80191" lon="5.5643">
        <ele>272.12</ele>
        <time>2015-08-28T16:32:22Z</time>
      </trkpt>
      <trkpt lat="46.80173" lon="5.56421">
        <ele>273.22</ele>
        <time>2015-08-28T16:32:28Z</time>
      </trkpt>
      <trkpt lat="46.80155" lon="5.56411">
        <ele>275.62</ele>
        <time>2015-08-28T16:32:34Z</time>
      </trkpt>
      <trkpt lat="46.80138" lon="5.564">
        <ele>277.93</ele>
        <time>2015-08-28T16:32:40Z</time>
      </trkpt>
      <trkpt lat="46.80122" lon="5.56387">
        <ele>280.67</ele>
        <time>2015-08-28T16:32:46Z</time>
      </trkpt>
      <trkpt lat="46.80106" lon="5.56372">
        <ele>282.13</ele>
        <time>2015-08-28T16:32:53Z</time>
      </trkpt>
      <trkpt lat="46.80091" lon="5.56357">
        <ele>283.13</ele>
        <time>2015-08-28T16:33:00Z</time>
      </trkpt>
      <trkpt lat="46.80074" lon="5.56339">
        <ele>284.13</ele>
        <time>2015-08-28T16:33:07Z</time>
      </trkpt>
      <trkpt lat="46.80057" lon="5.56322">
        <ele>285.13</ele>
        <time>2015-08-28T16:33:14Z</time>
      </trkpt>
      <trkpt lat="46.8004" lon="5.56305">
        <ele>286.24</ele>
        <time>2015-08-28T16:33:21Z</time>
      </trkpt>
      <trkpt lat="46.80024" lon="5.5629">
        <ele>287.01</ele>
        <time>2015-08-28T16:33:27Z</time>
      </trkpt>
      <trkpt lat="46.80007" lon="5.56272">
        <ele>287.25</ele>
        <time>2015-08-28T16:33:33Z</time>
      </trkpt>
      <trkpt lat="46.7999" lon="5.56255">
        <ele>287.26</ele>
        <time>2015-08-28T16:33:38Z</time>
      </trkpt>
      <trkpt lat="46.79975" lon="5.56239">
        <ele>287.26</ele>
        <time>2015-08-28T16:33:42Z</time>
      </trkpt>
      <trkpt lat="46.79959" lon="5.56223">
        <ele>287.26</ele>
        <time>2015-08-28T16:33:46Z</time>
      </trkpt>
      <trkpt lat="46.79943" lon="5.56208">
        <ele>287.26</ele>
        <time>2015-08-28T16:33:50Z</time>
      </trkpt>
      <trkpt lat="46.79925" lon="5.56194">
        <ele>287.26</ele>
        <time>2015-08-28T16:33:54Z</time>
      </trkpt>
      <trkpt lat="46.79906" lon="5.5618">
        <ele>286.51</ele>
        <time>2015-08-28T16:33:58Z</time>
      </trkpt>
      <trkpt lat="46.79885" lon="5.56174">
        <ele>287.02</ele>
        <time>2015-08-28T16:34:02Z</time>
      </trkpt>
      <trkpt lat="46.79863" lon="5.56168">
        <ele>286.37</ele>
        <time>2015-08-28T16:34:06Z</time>
      </trkpt>
      <trkpt lat="46.79841" lon="5.56163">
        <ele>285.33</ele>
        <time>2015-08-28T16:34:10Z</time>
      </trkpt>
      <trkpt lat="46.79823" lon="5.56157">
        <ele>285.02</ele>
        <time>2015-08-28T16:34:13Z</time>
      </trkpt>
      <trkpt lat="46.79806" lon="5.56146">
        <ele>285.23</ele>
        <time>2015-08-28T16:34:16Z</time>
      </trkpt>
      <trkpt lat="46.79791" lon="5.56131">
        <ele>285.25</ele>
        <time>2015-08-28T16:34:19Z</time>
      </trkpt>
      <trkpt lat="46.79775" lon="5.5611">
        <ele>286.13</ele>
        <time>2015-08-28T16:34:23Z</time>
      </trkpt>
      <trkpt lat="46.7976" lon="5.5609">
        <ele>287.87</ele>
        <time>2015-08-28T16:34:27Z</time>
      </trkpt>
      <trkpt lat="46.79745" lon="5.56068">
        <ele>289.86</ele>
        <time>2015-08-28T16:34:31Z</time>
      </trkpt>
      <trkpt lat="46.79731" lon="5.56046">
        <ele>291.92</ele>
        <time>2015-08-28T16:34:35Z</time>
      </trkpt>
      <trkpt lat="46.79715" lon="5.56024">
        <ele>294.55</ele>
        <time>2015-08-28T16:34:39Z</time>
      </trkpt>
      <trkpt lat="46.79701" lon="5.56004">
        <ele>296.59</ele>
        <time>2015-08-28T16:34:43Z</time>
      </trkpt>
      <trkpt lat="46.79688" lon="5.55983">
        <ele>298.84</ele>
        <time>2015-08-28T16:34:47Z</time>
      </trkpt>
      <trkpt lat="46.79673" lon="5.55964">
        <ele>300.22</ele>
        <time>2015-08-28T16:34:53Z</time>
      </trkpt>
      <trkpt lat="46.79659" lon="5.55944">
        <ele>302.25</ele>
        <time>2015-08-28T16:35:04Z</time>
      </trkpt>
    </trkseg>
  </trk>
</gpx>